<?xml version="1.0" encoding="UTF-8" standalone="no" ?>
<gpx xmlns="http://www.topografix.com/GPX/1/1" xmlns:xsi="http://www.w3.org/2001/XMLSchema-instance" xsi:schemaLocation="http://www.topografix.com/GPX/1/1 http://www.topografix.com/GPX/1/1/gpx.xsd" version="1.1" creator="VisuGPX - https://www.visugpx.com">
  <metadata>
    <name>Virée Hambers Montaigu</name>
    <desc><![CDATA[Circuit à VTT au départ de Bais, Hambers, Montaigu et retour à Bais.  Soleil, mais froid... Pas de vent, heureusement.]]></desc>
  </metadata>
  <trk>
    <name><![CDATA[Track]]></name>
    <trkseg>
      <trkpt lat="48.25222" lon="-0.35986">
        <ele>198.5</ele>
        <time>2013-01-17T13:01:56Z</time>
      </trkpt>
      <trkpt lat="48.25222" lon="-0.35986">
        <ele>198.5</ele>
        <time>2013-01-17T13:02:17Z</time>
      </trkpt>
      <trkpt lat="48.25222" lon="-0.35986">
        <ele>198.5</ele>
        <time>2013-01-17T13:02:22Z</time>
      </trkpt>
      <trkpt lat="48.25222" lon="-0.35986">
        <ele>269</ele>
        <time>2013-01-17T13:02:24Z</time>
      </trkpt>
      <trkpt lat="48.25215" lon="-0.36012">
        <ele>240</ele>
        <time>2013-01-17T13:03:15Z</time>
      </trkpt>
      <trkpt lat="48.25198" lon="-0.36043">
        <ele>235</ele>
        <time>2013-01-17T13:03:23Z</time>
      </trkpt>
      <trkpt lat="48.2518" lon="-0.36066">
        <ele>232</ele>
        <time>2013-01-17T13:03:29Z</time>
      </trkpt>
      <trkpt lat="48.25166" lon="-0.36087">
        <ele>230</ele>
        <time>2013-01-17T13:03:34Z</time>
      </trkpt>
      <trkpt lat="48.2515" lon="-0.36109">
        <ele>232</ele>
        <time>2013-01-17T13:03:40Z</time>
      </trkpt>
      <trkpt lat="48.25134" lon="-0.36133">
        <ele>227</ele>
        <time>2013-01-17T13:03:47Z</time>
      </trkpt>
      <trkpt lat="48.25134" lon="-0.36158">
        <ele>225</ele>
        <time>2013-01-17T13:03:53Z</time>
      </trkpt>
      <trkpt lat="48.25134" lon="-0.36158">
        <ele>225</ele>
        <time>2013-01-17T13:03:59Z</time>
      </trkpt>
      <trkpt lat="48.25134" lon="-0.36158">
        <ele>190.7</ele>
        <time>2013-01-17T13:04:33Z</time>
      </trkpt>
      <trkpt lat="48.2511" lon="-0.36188">
        <ele>228</ele>
        <time>2013-01-17T13:04:37Z</time>
      </trkpt>
      <trkpt lat="48.25098" lon="-0.362">
        <ele>229</ele>
        <time>2013-01-17T13:04:43Z</time>
      </trkpt>
      <trkpt lat="48.2508" lon="-0.36225">
        <ele>225</ele>
        <time>2013-01-17T13:04:51Z</time>
      </trkpt>
      <trkpt lat="48.2509" lon="-0.36267">
        <ele>228</ele>
        <time>2013-01-17T13:05:00Z</time>
      </trkpt>
      <trkpt lat="48.25103" lon="-0.36303">
        <ele>214</ele>
        <time>2013-01-17T13:05:07Z</time>
      </trkpt>
      <trkpt lat="48.25118" lon="-0.36345">
        <ele>207</ele>
        <time>2013-01-17T13:05:15Z</time>
      </trkpt>
      <trkpt lat="48.25134" lon="-0.36369">
        <ele>211</ele>
        <time>2013-01-17T13:05:20Z</time>
      </trkpt>
      <trkpt lat="48.25146" lon="-0.36389">
        <ele>219</ele>
        <time>2013-01-17T13:05:24Z</time>
      </trkpt>
      <trkpt lat="48.25166" lon="-0.36418">
        <ele>214</ele>
        <time>2013-01-17T13:05:31Z</time>
      </trkpt>
      <trkpt lat="48.25179" lon="-0.36438">
        <ele>218</ele>
        <time>2013-01-17T13:05:36Z</time>
      </trkpt>
      <trkpt lat="48.25186" lon="-0.3645">
        <ele>215</ele>
        <time>2013-01-17T13:05:39Z</time>
      </trkpt>
      <trkpt lat="48.25196" lon="-0.36467">
        <ele>214</ele>
        <time>2013-01-17T13:05:43Z</time>
      </trkpt>
      <trkpt lat="48.25193" lon="-0.36505">
        <ele>224</ele>
        <time>2013-01-17T13:05:50Z</time>
      </trkpt>
      <trkpt lat="48.25182" lon="-0.36518">
        <ele>223</ele>
        <time>2013-01-17T13:05:53Z</time>
      </trkpt>
      <trkpt lat="48.25157" lon="-0.36543">
        <ele>222</ele>
        <time>2013-01-17T13:05:59Z</time>
      </trkpt>
      <trkpt lat="48.25134" lon="-0.36569">
        <ele>218</ele>
        <time>2013-01-17T13:06:04Z</time>
      </trkpt>
      <trkpt lat="48.25117" lon="-0.36589">
        <ele>219</ele>
        <time>2013-01-17T13:06:09Z</time>
      </trkpt>
      <trkpt lat="48.251" lon="-0.36609">
        <ele>217</ele>
        <time>2013-01-17T13:06:14Z</time>
      </trkpt>
      <trkpt lat="48.25085" lon="-0.36627">
        <ele>219</ele>
        <time>2013-01-17T13:06:19Z</time>
      </trkpt>
      <trkpt lat="48.25066" lon="-0.36649">
        <ele>221</ele>
        <time>2013-01-17T13:06:25Z</time>
      </trkpt>
      <trkpt lat="48.25055" lon="-0.36678">
        <ele>214</ele>
        <time>2013-01-17T13:06:31Z</time>
      </trkpt>
      <trkpt lat="48.25062" lon="-0.36713">
        <ele>217</ele>
        <time>2013-01-17T13:06:38Z</time>
      </trkpt>
      <trkpt lat="48.25069" lon="-0.36742">
        <ele>223</ele>
        <time>2013-01-17T13:06:43Z</time>
      </trkpt>
      <trkpt lat="48.25073" lon="-0.36759">
        <ele>220</ele>
        <time>2013-01-17T13:06:46Z</time>
      </trkpt>
      <trkpt lat="48.2508" lon="-0.36783">
        <ele>222</ele>
        <time>2013-01-17T13:06:50Z</time>
      </trkpt>
      <trkpt lat="48.25085" lon="-0.36804">
        <ele>217</ele>
        <time>2013-01-17T13:06:54Z</time>
      </trkpt>
      <trkpt lat="48.25092" lon="-0.36834">
        <ele>224</ele>
        <time>2013-01-17T13:06:59Z</time>
      </trkpt>
      <trkpt lat="48.25096" lon="-0.36851">
        <ele>219</ele>
        <time>2013-01-17T13:07:02Z</time>
      </trkpt>
      <trkpt lat="48.25106" lon="-0.3689">
        <ele>219</ele>
        <time>2013-01-17T13:07:09Z</time>
      </trkpt>
      <trkpt lat="48.25109" lon="-0.36905">
        <ele>216</ele>
        <time>2013-01-17T13:07:12Z</time>
      </trkpt>
      <trkpt lat="48.2512" lon="-0.36946">
        <ele>220</ele>
        <time>2013-01-17T13:07:19Z</time>
      </trkpt>
      <trkpt lat="48.25129" lon="-0.36985">
        <ele>220</ele>
        <time>2013-01-17T13:07:26Z</time>
      </trkpt>
      <trkpt lat="48.25136" lon="-0.37012">
        <ele>220</ele>
        <time>2013-01-17T13:07:31Z</time>
      </trkpt>
      <trkpt lat="48.25142" lon="-0.37041">
        <ele>219</ele>
        <time>2013-01-17T13:07:36Z</time>
      </trkpt>
      <trkpt lat="48.25146" lon="-0.37058">
        <ele>219</ele>
        <time>2013-01-17T13:07:39Z</time>
      </trkpt>
      <trkpt lat="48.25154" lon="-0.37092">
        <ele>217</ele>
        <time>2013-01-17T13:07:45Z</time>
      </trkpt>
      <trkpt lat="48.25158" lon="-0.37109">
        <ele>219</ele>
        <time>2013-01-17T13:07:48Z</time>
      </trkpt>
      <trkpt lat="48.25167" lon="-0.37145">
        <ele>219</ele>
        <time>2013-01-17T13:07:54Z</time>
      </trkpt>
      <trkpt lat="48.25174" lon="-0.37176">
        <ele>215</ele>
        <time>2013-01-17T13:07:59Z</time>
      </trkpt>
      <trkpt lat="48.25181" lon="-0.37206">
        <ele>212</ele>
        <time>2013-01-17T13:08:04Z</time>
      </trkpt>
      <trkpt lat="48.25191" lon="-0.37249">
        <ele>214</ele>
        <time>2013-01-17T13:08:11Z</time>
      </trkpt>
      <trkpt lat="48.252" lon="-0.37282">
        <ele>218</ele>
        <time>2013-01-17T13:08:16Z</time>
      </trkpt>
      <trkpt lat="48.25211" lon="-0.37313">
        <ele>216</ele>
        <time>2013-01-17T13:08:21Z</time>
      </trkpt>
      <trkpt lat="48.25226" lon="-0.37348">
        <ele>216</ele>
        <time>2013-01-17T13:08:27Z</time>
      </trkpt>
      <trkpt lat="48.2524" lon="-0.37377">
        <ele>209</ele>
        <time>2013-01-17T13:08:32Z</time>
      </trkpt>
      <trkpt lat="48.25255" lon="-0.3741">
        <ele>213</ele>
        <time>2013-01-17T13:08:38Z</time>
      </trkpt>
      <trkpt lat="48.2527" lon="-0.3744">
        <ele>208</ele>
        <time>2013-01-17T13:08:43Z</time>
      </trkpt>
      <trkpt lat="48.25279" lon="-0.37464">
        <ele>208</ele>
        <time>2013-01-17T13:08:47Z</time>
      </trkpt>
      <trkpt lat="48.25288" lon="-0.37493">
        <ele>206</ele>
        <time>2013-01-17T13:08:52Z</time>
      </trkpt>
      <trkpt lat="48.25289" lon="-0.37528">
        <ele>211</ele>
        <time>2013-01-17T13:08:57Z</time>
      </trkpt>
      <trkpt lat="48.25289" lon="-0.3755">
        <ele>208</ele>
        <time>2013-01-17T13:09:00Z</time>
      </trkpt>
      <trkpt lat="48.25289" lon="-0.37569">
        <ele>209</ele>
        <time>2013-01-17T13:09:03Z</time>
      </trkpt>
      <trkpt lat="48.25289" lon="-0.37603">
        <ele>207</ele>
        <time>2013-01-17T13:09:08Z</time>
      </trkpt>
      <trkpt lat="48.25289" lon="-0.37638">
        <ele>207</ele>
        <time>2013-01-17T13:09:13Z</time>
      </trkpt>
      <trkpt lat="48.25289" lon="-0.37671">
        <ele>207</ele>
        <time>2013-01-17T13:09:18Z</time>
      </trkpt>
      <trkpt lat="48.25287" lon="-0.37703">
        <ele>207</ele>
        <time>2013-01-17T13:09:23Z</time>
      </trkpt>
      <trkpt lat="48.25288" lon="-0.37737">
        <ele>211</ele>
        <time>2013-01-17T13:09:29Z</time>
      </trkpt>
      <trkpt lat="48.25289" lon="-0.37753">
        <ele>211</ele>
        <time>2013-01-17T13:09:32Z</time>
      </trkpt>
      <trkpt lat="48.2529" lon="-0.37792">
        <ele>210</ele>
        <time>2013-01-17T13:09:39Z</time>
      </trkpt>
      <trkpt lat="48.2529" lon="-0.37824">
        <ele>209</ele>
        <time>2013-01-17T13:09:45Z</time>
      </trkpt>
      <trkpt lat="48.2529" lon="-0.37864">
        <ele>212</ele>
        <time>2013-01-17T13:09:52Z</time>
      </trkpt>
      <trkpt lat="48.2529" lon="-0.37897">
        <ele>212</ele>
        <time>2013-01-17T13:09:58Z</time>
      </trkpt>
      <trkpt lat="48.2529" lon="-0.3793">
        <ele>214</ele>
        <time>2013-01-17T13:10:03Z</time>
      </trkpt>
      <trkpt lat="48.2529" lon="-0.3796">
        <ele>214</ele>
        <time>2013-01-17T13:10:08Z</time>
      </trkpt>
      <trkpt lat="48.2529" lon="-0.37996">
        <ele>213</ele>
        <time>2013-01-17T13:10:14Z</time>
      </trkpt>
      <trkpt lat="48.2529" lon="-0.38024">
        <ele>215</ele>
        <time>2013-01-17T13:10:19Z</time>
      </trkpt>
      <trkpt lat="48.25292" lon="-0.38061">
        <ele>208</ele>
        <time>2013-01-17T13:10:25Z</time>
      </trkpt>
      <trkpt lat="48.25294" lon="-0.38095">
        <ele>212</ele>
        <time>2013-01-17T13:10:30Z</time>
      </trkpt>
      <trkpt lat="48.25297" lon="-0.38127">
        <ele>212</ele>
        <time>2013-01-17T13:10:35Z</time>
      </trkpt>
      <trkpt lat="48.25303" lon="-0.3816">
        <ele>213</ele>
        <time>2013-01-17T13:10:40Z</time>
      </trkpt>
      <trkpt lat="48.25311" lon="-0.38199">
        <ele>213</ele>
        <time>2013-01-17T13:10:46Z</time>
      </trkpt>
      <trkpt lat="48.25315" lon="-0.38218">
        <ele>212</ele>
        <time>2013-01-17T13:10:49Z</time>
      </trkpt>
      <trkpt lat="48.25323" lon="-0.38261">
        <ele>213</ele>
        <time>2013-01-17T13:10:55Z</time>
      </trkpt>
      <trkpt lat="48.25331" lon="-0.38295">
        <ele>214</ele>
        <time>2013-01-17T13:11:00Z</time>
      </trkpt>
      <trkpt lat="48.25339" lon="-0.38328">
        <ele>215</ele>
        <time>2013-01-17T13:11:05Z</time>
      </trkpt>
      <trkpt lat="48.25343" lon="-0.38347">
        <ele>214</ele>
        <time>2013-01-17T13:11:08Z</time>
      </trkpt>
      <trkpt lat="48.25349" lon="-0.38383">
        <ele>211</ele>
        <time>2013-01-17T13:11:14Z</time>
      </trkpt>
      <trkpt lat="48.25352" lon="-0.38399">
        <ele>213</ele>
        <time>2013-01-17T13:11:17Z</time>
      </trkpt>
      <trkpt lat="48.2536" lon="-0.38441">
        <ele>207</ele>
        <time>2013-01-17T13:12:16Z</time>
      </trkpt>
      <trkpt lat="48.25368" lon="-0.38482">
        <ele>206</ele>
        <time>2013-01-17T13:12:25Z</time>
      </trkpt>
      <trkpt lat="48.25373" lon="-0.3851">
        <ele>207</ele>
        <time>2013-01-17T13:12:30Z</time>
      </trkpt>
      <trkpt lat="48.25376" lon="-0.38523">
        <ele>205</ele>
        <time>2013-01-17T13:12:33Z</time>
      </trkpt>
      <trkpt lat="48.25382" lon="-0.38565">
        <ele>206</ele>
        <time>2013-01-17T13:13:10Z</time>
      </trkpt>
      <trkpt lat="48.25399" lon="-0.38589">
        <ele>207</ele>
        <time>2013-01-17T13:13:18Z</time>
      </trkpt>
      <trkpt lat="48.25425" lon="-0.38583">
        <ele>208</ele>
        <time>2013-01-17T13:13:25Z</time>
      </trkpt>
      <trkpt lat="48.25441" lon="-0.38579">
        <ele>205</ele>
        <time>2013-01-17T13:13:31Z</time>
      </trkpt>
      <trkpt lat="48.25441" lon="-0.38579">
        <ele>205</ele>
        <time>2013-01-17T13:13:39Z</time>
      </trkpt>
      <trkpt lat="48.25441" lon="-0.38579">
        <ele>168.1</ele>
        <time>2013-01-17T13:13:50Z</time>
      </trkpt>
      <trkpt lat="48.25473" lon="-0.38567">
        <ele>205</ele>
        <time>2013-01-17T13:13:57Z</time>
      </trkpt>
      <trkpt lat="48.25485" lon="-0.38557">
        <ele>206</ele>
        <time>2013-01-17T13:14:04Z</time>
      </trkpt>
      <trkpt lat="48.25485" lon="-0.38557">
        <ele>206</ele>
        <time>2013-01-17T13:14:13Z</time>
      </trkpt>
      <trkpt lat="48.25485" lon="-0.38557">
        <ele>167.5</ele>
        <time>2013-01-17T13:14:59Z</time>
      </trkpt>
      <trkpt lat="48.2551" lon="-0.38533">
        <ele>208</ele>
        <time>2013-01-17T13:15:10Z</time>
      </trkpt>
      <trkpt lat="48.2551" lon="-0.38533">
        <ele>166.9</ele>
        <time>2013-01-17T13:15:17Z</time>
      </trkpt>
      <trkpt lat="48.2551" lon="-0.38533">
        <ele>166.9</ele>
        <time>2013-01-17T13:17:22Z</time>
      </trkpt>
      <trkpt lat="48.2548" lon="-0.38565">
        <ele>207</ele>
        <time>2013-01-17T13:17:29Z</time>
      </trkpt>
      <trkpt lat="48.25459" lon="-0.38578">
        <ele>204</ele>
        <time>2013-01-17T13:17:36Z</time>
      </trkpt>
      <trkpt lat="48.25431" lon="-0.38584">
        <ele>206</ele>
        <time>2013-01-17T13:17:44Z</time>
      </trkpt>
      <trkpt lat="48.25408" lon="-0.38588">
        <ele>210</ele>
        <time>2013-01-17T13:17:51Z</time>
      </trkpt>
      <trkpt lat="48.25393" lon="-0.38607">
        <ele>206</ele>
        <time>2013-01-17T13:18:00Z</time>
      </trkpt>
      <trkpt lat="48.25398" lon="-0.38637">
        <ele>209</ele>
        <time>2013-01-17T13:18:06Z</time>
      </trkpt>
      <trkpt lat="48.25405" lon="-0.38672">
        <ele>212</ele>
        <time>2013-01-17T13:18:13Z</time>
      </trkpt>
      <trkpt lat="48.2541" lon="-0.38698">
        <ele>207</ele>
        <time>2013-01-17T13:18:18Z</time>
      </trkpt>
      <trkpt lat="48.25414" lon="-0.38715">
        <ele>209</ele>
        <time>2013-01-17T13:18:21Z</time>
      </trkpt>
      <trkpt lat="48.25423" lon="-0.38748">
        <ele>208</ele>
        <time>2013-01-17T13:18:27Z</time>
      </trkpt>
      <trkpt lat="48.25431" lon="-0.38782">
        <ele>210</ele>
        <time>2013-01-17T13:18:33Z</time>
      </trkpt>
      <trkpt lat="48.25434" lon="-0.388">
        <ele>209</ele>
        <time>2013-01-17T13:18:36Z</time>
      </trkpt>
      <trkpt lat="48.25439" lon="-0.3883">
        <ele>213</ele>
        <time>2013-01-17T13:18:41Z</time>
      </trkpt>
      <trkpt lat="48.25442" lon="-0.38847">
        <ele>216</ele>
        <time>2013-01-17T13:18:44Z</time>
      </trkpt>
      <trkpt lat="48.25448" lon="-0.38883">
        <ele>212</ele>
        <time>2013-01-17T13:18:50Z</time>
      </trkpt>
      <trkpt lat="48.25455" lon="-0.38917">
        <ele>208</ele>
        <time>2013-01-17T13:18:56Z</time>
      </trkpt>
      <trkpt lat="48.25464" lon="-0.38957">
        <ele>207</ele>
        <time>2013-01-17T13:19:03Z</time>
      </trkpt>
      <trkpt lat="48.25471" lon="-0.38995">
        <ele>209</ele>
        <time>2013-01-17T13:19:09Z</time>
      </trkpt>
      <trkpt lat="48.25475" lon="-0.39013">
        <ele>209</ele>
        <time>2013-01-17T13:19:12Z</time>
      </trkpt>
      <trkpt lat="48.25479" lon="-0.39033">
        <ele>208</ele>
        <time>2013-01-17T13:19:15Z</time>
      </trkpt>
      <trkpt lat="48.25487" lon="-0.39064">
        <ele>210</ele>
        <time>2013-01-17T13:19:20Z</time>
      </trkpt>
      <trkpt lat="48.25494" lon="-0.39099">
        <ele>206</ele>
        <time>2013-01-17T13:19:26Z</time>
      </trkpt>
      <trkpt lat="48.25497" lon="-0.39117">
        <ele>205</ele>
        <time>2013-01-17T13:19:29Z</time>
      </trkpt>
      <trkpt lat="48.25505" lon="-0.39155">
        <ele>204</ele>
        <time>2013-01-17T13:19:35Z</time>
      </trkpt>
      <trkpt lat="48.25513" lon="-0.39195">
        <ele>204</ele>
        <time>2013-01-17T13:19:41Z</time>
      </trkpt>
      <trkpt lat="48.2552" lon="-0.39229">
        <ele>205</ele>
        <time>2013-01-17T13:19:46Z</time>
      </trkpt>
      <trkpt lat="48.25524" lon="-0.39262">
        <ele>208</ele>
        <time>2013-01-17T13:19:51Z</time>
      </trkpt>
      <trkpt lat="48.25525" lon="-0.39296">
        <ele>212</ele>
        <time>2013-01-17T13:19:58Z</time>
      </trkpt>
      <trkpt lat="48.25518" lon="-0.39368">
        <ele>204</ele>
        <time>2013-01-17T13:20:06Z</time>
      </trkpt>
      <trkpt lat="48.25513" lon="-0.39403">
        <ele>208</ele>
        <time>2013-01-17T13:20:11Z</time>
      </trkpt>
      <trkpt lat="48.2551" lon="-0.3942">
        <ele>204</ele>
        <time>2013-01-17T13:20:14Z</time>
      </trkpt>
      <trkpt lat="48.25506" lon="-0.39438">
        <ele>201</ele>
        <time>2013-01-17T13:20:17Z</time>
      </trkpt>
      <trkpt lat="48.255" lon="-0.39474">
        <ele>200</ele>
        <time>2013-01-17T13:20:22Z</time>
      </trkpt>
      <trkpt lat="48.25497" lon="-0.39496">
        <ele>201</ele>
        <time>2013-01-17T13:20:25Z</time>
      </trkpt>
      <trkpt lat="48.25494" lon="-0.39514">
        <ele>202</ele>
        <time>2013-01-17T13:20:28Z</time>
      </trkpt>
      <trkpt lat="48.25491" lon="-0.39548">
        <ele>202</ele>
        <time>2013-01-17T13:20:34Z</time>
      </trkpt>
      <trkpt lat="48.25491" lon="-0.39586">
        <ele>202</ele>
        <time>2013-01-17T13:20:41Z</time>
      </trkpt>
      <trkpt lat="48.25493" lon="-0.39633">
        <ele>206</ele>
        <time>2013-01-17T13:20:50Z</time>
      </trkpt>
      <trkpt lat="48.25495" lon="-0.39651">
        <ele>205</ele>
        <time>2013-01-17T13:20:54Z</time>
      </trkpt>
      <trkpt lat="48.25499" lon="-0.39677">
        <ele>202</ele>
        <time>2013-01-17T13:20:59Z</time>
      </trkpt>
      <trkpt lat="48.25501" lon="-0.39693">
        <ele>203</ele>
        <time>2013-01-17T13:21:02Z</time>
      </trkpt>
      <trkpt lat="48.25504" lon="-0.39709">
        <ele>205</ele>
        <time>2013-01-17T13:21:05Z</time>
      </trkpt>
      <trkpt lat="48.25508" lon="-0.39734">
        <ele>206</ele>
        <time>2013-01-17T13:21:11Z</time>
      </trkpt>
      <trkpt lat="48.25515" lon="-0.39774">
        <ele>205</ele>
        <time>2013-01-17T13:21:18Z</time>
      </trkpt>
      <trkpt lat="48.25517" lon="-0.39789">
        <ele>204</ele>
        <time>2013-01-17T13:21:21Z</time>
      </trkpt>
      <trkpt lat="48.2552" lon="-0.39804">
        <ele>206</ele>
        <time>2013-01-17T13:21:24Z</time>
      </trkpt>
      <trkpt lat="48.25524" lon="-0.39839">
        <ele>210</ele>
        <time>2013-01-17T13:21:31Z</time>
      </trkpt>
      <trkpt lat="48.25528" lon="-0.39871">
        <ele>208</ele>
        <time>2013-01-17T13:21:37Z</time>
      </trkpt>
      <trkpt lat="48.25533" lon="-0.39906">
        <ele>209</ele>
        <time>2013-01-17T13:21:44Z</time>
      </trkpt>
      <trkpt lat="48.25537" lon="-0.39941">
        <ele>209</ele>
        <time>2013-01-17T13:21:51Z</time>
      </trkpt>
      <trkpt lat="48.25539" lon="-0.39956">
        <ele>208</ele>
        <time>2013-01-17T13:21:54Z</time>
      </trkpt>
      <trkpt lat="48.25541" lon="-0.3997">
        <ele>212</ele>
        <time>2013-01-17T13:21:57Z</time>
      </trkpt>
      <trkpt lat="48.25543" lon="-0.39983">
        <ele>211</ele>
        <time>2013-01-17T13:22:00Z</time>
      </trkpt>
      <trkpt lat="48.25544" lon="-0.39997">
        <ele>212</ele>
        <time>2013-01-17T13:22:03Z</time>
      </trkpt>
      <trkpt lat="48.2555" lon="-0.40031">
        <ele>210</ele>
        <time>2013-01-17T13:22:11Z</time>
      </trkpt>
      <trkpt lat="48.25555" lon="-0.40058">
        <ele>210</ele>
        <time>2013-01-17T13:22:18Z</time>
      </trkpt>
      <trkpt lat="48.25557" lon="-0.4007">
        <ele>215</ele>
        <time>2013-01-17T13:22:21Z</time>
      </trkpt>
      <trkpt lat="48.25559" lon="-0.40081">
        <ele>212</ele>
        <time>2013-01-17T13:22:24Z</time>
      </trkpt>
      <trkpt lat="48.25565" lon="-0.40113">
        <ele>216</ele>
        <time>2013-01-17T13:22:32Z</time>
      </trkpt>
      <trkpt lat="48.25569" lon="-0.40139">
        <ele>215</ele>
        <time>2013-01-17T13:22:39Z</time>
      </trkpt>
      <trkpt lat="48.25574" lon="-0.40167">
        <ele>216</ele>
        <time>2013-01-17T13:22:48Z</time>
      </trkpt>
      <trkpt lat="48.25575" lon="-0.40178">
        <ele>216</ele>
        <time>2013-01-17T13:22:51Z</time>
      </trkpt>
      <trkpt lat="48.25577" lon="-0.40189">
        <ele>218</ele>
        <time>2013-01-17T13:22:54Z</time>
      </trkpt>
      <trkpt lat="48.25579" lon="-0.40201">
        <ele>219</ele>
        <time>2013-01-17T13:22:57Z</time>
      </trkpt>
      <trkpt lat="48.25581" lon="-0.4023">
        <ele>219</ele>
        <time>2013-01-17T13:23:06Z</time>
      </trkpt>
      <trkpt lat="48.25585" lon="-0.40268">
        <ele>224</ele>
        <time>2013-01-17T13:23:16Z</time>
      </trkpt>
      <trkpt lat="48.25587" lon="-0.40287">
        <ele>223</ele>
        <time>2013-01-17T13:23:22Z</time>
      </trkpt>
      <trkpt lat="48.25589" lon="-0.40309">
        <ele>220</ele>
        <time>2013-01-17T13:23:29Z</time>
      </trkpt>
      <trkpt lat="48.25594" lon="-0.40352">
        <ele>222</ele>
        <time>2013-01-17T13:23:40Z</time>
      </trkpt>
      <trkpt lat="48.25596" lon="-0.40384">
        <ele>219</ele>
        <time>2013-01-17T13:23:48Z</time>
      </trkpt>
      <trkpt lat="48.25598" lon="-0.40399">
        <ele>220</ele>
        <time>2013-01-17T13:23:51Z</time>
      </trkpt>
      <trkpt lat="48.25601" lon="-0.40424">
        <ele>219</ele>
        <time>2013-01-17T13:23:58Z</time>
      </trkpt>
      <trkpt lat="48.25609" lon="-0.40462">
        <ele>220</ele>
        <time>2013-01-17T13:24:06Z</time>
      </trkpt>
      <trkpt lat="48.25615" lon="-0.40484">
        <ele>221</ele>
        <time>2013-01-17T13:24:11Z</time>
      </trkpt>
      <trkpt lat="48.25621" lon="-0.40508">
        <ele>222</ele>
        <time>2013-01-17T13:24:16Z</time>
      </trkpt>
      <trkpt lat="48.25629" lon="-0.40538">
        <ele>222</ele>
        <time>2013-01-17T13:24:22Z</time>
      </trkpt>
      <trkpt lat="48.25637" lon="-0.40564">
        <ele>224</ele>
        <time>2013-01-17T13:24:27Z</time>
      </trkpt>
      <trkpt lat="48.25643" lon="-0.40601">
        <ele>227</ele>
        <time>2013-01-17T13:24:34Z</time>
      </trkpt>
      <trkpt lat="48.25643" lon="-0.40622">
        <ele>227</ele>
        <time>2013-01-17T13:24:38Z</time>
      </trkpt>
      <trkpt lat="48.25644" lon="-0.40649">
        <ele>229</ele>
        <time>2013-01-17T13:24:43Z</time>
      </trkpt>
      <trkpt lat="48.25643" lon="-0.40665">
        <ele>230</ele>
        <time>2013-01-17T13:24:46Z</time>
      </trkpt>
      <trkpt lat="48.25643" lon="-0.4068">
        <ele>227</ele>
        <time>2013-01-17T13:24:49Z</time>
      </trkpt>
      <trkpt lat="48.25641" lon="-0.40708">
        <ele>225</ele>
        <time>2013-01-17T13:24:56Z</time>
      </trkpt>
      <trkpt lat="48.25637" lon="-0.40747">
        <ele>224</ele>
        <time>2013-01-17T13:25:44Z</time>
      </trkpt>
      <trkpt lat="48.25635" lon="-0.40767">
        <ele>226</ele>
        <time>2013-01-17T13:25:48Z</time>
      </trkpt>
      <trkpt lat="48.25634" lon="-0.40782">
        <ele>230</ele>
        <time>2013-01-17T13:25:52Z</time>
      </trkpt>
      <trkpt lat="48.25633" lon="-0.40821">
        <ele>229</ele>
        <time>2013-01-17T13:26:00Z</time>
      </trkpt>
      <trkpt lat="48.25632" lon="-0.40834">
        <ele>229</ele>
        <time>2013-01-17T13:26:03Z</time>
      </trkpt>
      <trkpt lat="48.25628" lon="-0.40871">
        <ele>230</ele>
        <time>2013-01-17T13:26:11Z</time>
      </trkpt>
      <trkpt lat="48.25626" lon="-0.40899">
        <ele>227</ele>
        <time>2013-01-17T13:26:16Z</time>
      </trkpt>
      <trkpt lat="48.25625" lon="-0.40922">
        <ele>229</ele>
        <time>2013-01-17T13:26:21Z</time>
      </trkpt>
      <trkpt lat="48.25622" lon="-0.40953">
        <ele>228</ele>
        <time>2013-01-17T13:26:27Z</time>
      </trkpt>
      <trkpt lat="48.25617" lon="-0.40987">
        <ele>228</ele>
        <time>2013-01-17T13:26:34Z</time>
      </trkpt>
      <trkpt lat="48.2561" lon="-0.41028">
        <ele>227</ele>
        <time>2013-01-17T13:26:41Z</time>
      </trkpt>
      <trkpt lat="48.25607" lon="-0.4105">
        <ele>224</ele>
        <time>2013-01-17T13:26:45Z</time>
      </trkpt>
      <trkpt lat="48.25597" lon="-0.41092">
        <ele>226</ele>
        <time>2013-01-17T13:26:52Z</time>
      </trkpt>
      <trkpt lat="48.25591" lon="-0.41121">
        <ele>218</ele>
        <time>2013-01-17T13:26:57Z</time>
      </trkpt>
      <trkpt lat="48.2558" lon="-0.41157">
        <ele>216</ele>
        <time>2013-01-17T13:27:03Z</time>
      </trkpt>
      <trkpt lat="48.25566" lon="-0.41187">
        <ele>215</ele>
        <time>2013-01-17T13:27:08Z</time>
      </trkpt>
      <trkpt lat="48.25555" lon="-0.41219">
        <ele>211</ele>
        <time>2013-01-17T13:27:13Z</time>
      </trkpt>
      <trkpt lat="48.25543" lon="-0.41258">
        <ele>213</ele>
        <time>2013-01-17T13:27:19Z</time>
      </trkpt>
      <trkpt lat="48.25535" lon="-0.41296">
        <ele>203</ele>
        <time>2013-01-17T13:27:25Z</time>
      </trkpt>
      <trkpt lat="48.25531" lon="-0.41315">
        <ele>207</ele>
        <time>2013-01-17T13:27:28Z</time>
      </trkpt>
      <trkpt lat="48.25523" lon="-0.41349">
        <ele>204</ele>
        <time>2013-01-17T13:27:33Z</time>
      </trkpt>
      <trkpt lat="48.25514" lon="-0.41391">
        <ele>204</ele>
        <time>2013-01-17T13:27:39Z</time>
      </trkpt>
      <trkpt lat="48.25509" lon="-0.41417">
        <ele>205</ele>
        <time>2013-01-17T13:27:43Z</time>
      </trkpt>
      <trkpt lat="48.25498" lon="-0.41459">
        <ele>204</ele>
        <time>2013-01-17T13:27:50Z</time>
      </trkpt>
      <trkpt lat="48.25491" lon="-0.41488">
        <ele>207</ele>
        <time>2013-01-17T13:27:55Z</time>
      </trkpt>
      <trkpt lat="48.25485" lon="-0.41524">
        <ele>209</ele>
        <time>2013-01-17T13:28:01Z</time>
      </trkpt>
      <trkpt lat="48.25479" lon="-0.41562">
        <ele>206</ele>
        <time>2013-01-17T13:28:07Z</time>
      </trkpt>
      <trkpt lat="48.25469" lon="-0.41579">
        <ele>207</ele>
        <time>2013-01-17T13:28:12Z</time>
      </trkpt>
      <trkpt lat="48.25449" lon="-0.41572">
        <ele>205</ele>
        <time>2013-01-17T13:28:19Z</time>
      </trkpt>
      <trkpt lat="48.25422" lon="-0.41563">
        <ele>198</ele>
        <time>2013-01-17T13:28:27Z</time>
      </trkpt>
      <trkpt lat="48.25402" lon="-0.41556">
        <ele>198</ele>
        <time>2013-01-17T13:28:36Z</time>
      </trkpt>
      <trkpt lat="48.25392" lon="-0.41536">
        <ele>203</ele>
        <time>2013-01-17T13:28:43Z</time>
      </trkpt>
      <trkpt lat="48.25373" lon="-0.41518">
        <ele>202</ele>
        <time>2013-01-17T13:28:52Z</time>
      </trkpt>
      <trkpt lat="48.25341" lon="-0.41528">
        <ele>200</ele>
        <time>2013-01-17T13:29:03Z</time>
      </trkpt>
      <trkpt lat="48.25324" lon="-0.4155">
        <ele>192</ele>
        <time>2013-01-17T13:29:12Z</time>
      </trkpt>
      <trkpt lat="48.25308" lon="-0.41574">
        <ele>194</ele>
        <time>2013-01-17T13:29:18Z</time>
      </trkpt>
      <trkpt lat="48.25296" lon="-0.41594">
        <ele>195</ele>
        <time>2013-01-17T13:29:23Z</time>
      </trkpt>
      <trkpt lat="48.2528" lon="-0.41618">
        <ele>193</ele>
        <time>2013-01-17T13:29:31Z</time>
      </trkpt>
      <trkpt lat="48.2526" lon="-0.41628">
        <ele>199</ele>
        <time>2013-01-17T13:29:40Z</time>
      </trkpt>
      <trkpt lat="48.25247" lon="-0.41628">
        <ele>203</ele>
        <time>2013-01-17T13:29:46Z</time>
      </trkpt>
      <trkpt lat="48.25225" lon="-0.41643">
        <ele>198</ele>
        <time>2013-01-17T13:29:56Z</time>
      </trkpt>
      <trkpt lat="48.25219" lon="-0.41674">
        <ele>197</ele>
        <time>2013-01-17T13:30:03Z</time>
      </trkpt>
      <trkpt lat="48.25215" lon="-0.41698">
        <ele>196</ele>
        <time>2013-01-17T13:30:08Z</time>
      </trkpt>
      <trkpt lat="48.25208" lon="-0.41724">
        <ele>191</ele>
        <time>2013-01-17T13:30:16Z</time>
      </trkpt>
      <trkpt lat="48.25196" lon="-0.4173">
        <ele>197</ele>
        <time>2013-01-17T13:30:22Z</time>
      </trkpt>
      <trkpt lat="48.25196" lon="-0.4173">
        <ele>157.7</ele>
        <time>2013-01-17T13:30:29Z</time>
      </trkpt>
      <trkpt lat="48.25196" lon="-0.4173">
        <ele>157.7</ele>
        <time>2013-01-17T13:30:34Z</time>
      </trkpt>
      <trkpt lat="48.25233" lon="-0.4174">
        <ele>198</ele>
        <time>2013-01-17T13:30:38Z</time>
      </trkpt>
      <trkpt lat="48.25243" lon="-0.41747">
        <ele>198</ele>
        <time>2013-01-17T13:30:42Z</time>
      </trkpt>
      <trkpt lat="48.25257" lon="-0.41749">
        <ele>197</ele>
        <time>2013-01-17T13:30:49Z</time>
      </trkpt>
      <trkpt lat="48.25241" lon="-0.41732">
        <ele>199</ele>
        <time>2013-01-17T13:30:58Z</time>
      </trkpt>
      <trkpt lat="48.2523" lon="-0.41715">
        <ele>198</ele>
        <time>2013-01-17T13:31:06Z</time>
      </trkpt>
      <trkpt lat="48.2523" lon="-0.41696">
        <ele>196</ele>
        <time>2013-01-17T13:31:11Z</time>
      </trkpt>
      <trkpt lat="48.25234" lon="-0.41668">
        <ele>195</ele>
        <time>2013-01-17T13:31:19Z</time>
      </trkpt>
      <trkpt lat="48.25251" lon="-0.41635">
        <ele>188</ele>
        <time>2013-01-17T13:32:49Z</time>
      </trkpt>
      <trkpt lat="48.25251" lon="-0.41635">
        <ele>188</ele>
        <time>2013-01-17T13:36:07Z</time>
      </trkpt>
      <trkpt lat="48.25238" lon="-0.41664">
        <ele>204</ele>
        <time>2013-01-17T13:36:13Z</time>
      </trkpt>
      <trkpt lat="48.2523" lon="-0.41681">
        <ele>200</ele>
        <time>2013-01-17T13:36:19Z</time>
      </trkpt>
      <trkpt lat="48.25228" lon="-0.41715">
        <ele>199</ele>
        <time>2013-01-17T13:36:28Z</time>
      </trkpt>
      <trkpt lat="48.25225" lon="-0.41731">
        <ele>194</ele>
        <time>2013-01-17T13:36:33Z</time>
      </trkpt>
      <trkpt lat="48.25225" lon="-0.41731">
        <ele>157.6</ele>
        <time>2013-01-17T13:36:41Z</time>
      </trkpt>
      <trkpt lat="48.25225" lon="-0.41731">
        <ele>157.6</ele>
        <time>2013-01-17T13:36:49Z</time>
      </trkpt>
      <trkpt lat="48.25173" lon="-0.4173">
        <ele>202</ele>
        <time>2013-01-17T13:37:05Z</time>
      </trkpt>
      <trkpt lat="48.25148" lon="-0.41726">
        <ele>199</ele>
        <time>2013-01-17T13:37:12Z</time>
      </trkpt>
      <trkpt lat="48.25128" lon="-0.41724">
        <ele>196</ele>
        <time>2013-01-17T13:37:17Z</time>
      </trkpt>
      <trkpt lat="48.25109" lon="-0.41722">
        <ele>198</ele>
        <time>2013-01-17T13:37:22Z</time>
      </trkpt>
      <trkpt lat="48.25084" lon="-0.4172">
        <ele>200</ele>
        <time>2013-01-17T13:37:28Z</time>
      </trkpt>
      <trkpt lat="48.25061" lon="-0.4172">
        <ele>198</ele>
        <time>2013-01-17T13:37:34Z</time>
      </trkpt>
      <trkpt lat="48.25035" lon="-0.41718">
        <ele>199</ele>
        <time>2013-01-17T13:37:40Z</time>
      </trkpt>
      <trkpt lat="48.25" lon="-0.41714">
        <ele>199</ele>
        <time>2013-01-17T13:37:47Z</time>
      </trkpt>
      <trkpt lat="48.24973" lon="-0.4171">
        <ele>199</ele>
        <time>2013-01-17T13:37:53Z</time>
      </trkpt>
      <trkpt lat="48.24952" lon="-0.4171">
        <ele>200</ele>
        <time>2013-01-17T13:37:58Z</time>
      </trkpt>
      <trkpt lat="48.24926" lon="-0.41714">
        <ele>196</ele>
        <time>2013-01-17T13:38:04Z</time>
      </trkpt>
      <trkpt lat="48.24901" lon="-0.41721">
        <ele>194</ele>
        <time>2013-01-17T13:38:09Z</time>
      </trkpt>
      <trkpt lat="48.24872" lon="-0.41734">
        <ele>196</ele>
        <time>2013-01-17T13:38:15Z</time>
      </trkpt>
      <trkpt lat="48.24849" lon="-0.41745">
        <ele>194</ele>
        <time>2013-01-17T13:38:21Z</time>
      </trkpt>
      <trkpt lat="48.24822" lon="-0.41759">
        <ele>196</ele>
        <time>2013-01-17T13:38:28Z</time>
      </trkpt>
      <trkpt lat="48.24796" lon="-0.41771">
        <ele>196</ele>
        <time>2013-01-17T13:38:35Z</time>
      </trkpt>
      <trkpt lat="48.2478" lon="-0.41777">
        <ele>195</ele>
        <time>2013-01-17T13:38:40Z</time>
      </trkpt>
      <trkpt lat="48.2476" lon="-0.41788">
        <ele>197</ele>
        <time>2013-01-17T13:38:47Z</time>
      </trkpt>
      <trkpt lat="48.2475" lon="-0.41796">
        <ele>198</ele>
        <time>2013-01-17T13:38:50Z</time>
      </trkpt>
      <trkpt lat="48.24727" lon="-0.41811">
        <ele>196</ele>
        <time>2013-01-17T13:38:57Z</time>
      </trkpt>
      <trkpt lat="48.24711" lon="-0.4182">
        <ele>198</ele>
        <time>2013-01-17T13:39:04Z</time>
      </trkpt>
      <trkpt lat="48.24692" lon="-0.41831">
        <ele>200</ele>
        <time>2013-01-17T13:39:12Z</time>
      </trkpt>
      <trkpt lat="48.24673" lon="-0.41841">
        <ele>201</ele>
        <time>2013-01-17T13:39:21Z</time>
      </trkpt>
      <trkpt lat="48.24665" lon="-0.41844">
        <ele>203</ele>
        <time>2013-01-17T13:39:24Z</time>
      </trkpt>
      <trkpt lat="48.24653" lon="-0.41851">
        <ele>199</ele>
        <time>2013-01-17T13:39:30Z</time>
      </trkpt>
      <trkpt lat="48.2464" lon="-0.41858">
        <ele>202</ele>
        <time>2013-01-17T13:39:37Z</time>
      </trkpt>
      <trkpt lat="48.24622" lon="-0.41866">
        <ele>202</ele>
        <time>2013-01-17T13:39:48Z</time>
      </trkpt>
      <trkpt lat="48.24609" lon="-0.41874">
        <ele>201</ele>
        <time>2013-01-17T13:39:56Z</time>
      </trkpt>
      <trkpt lat="48.24594" lon="-0.41886">
        <ele>204</ele>
        <time>2013-01-17T13:40:05Z</time>
      </trkpt>
      <trkpt lat="48.24585" lon="-0.41894">
        <ele>205</ele>
        <time>2013-01-17T13:40:12Z</time>
      </trkpt>
      <trkpt lat="48.24566" lon="-0.41907">
        <ele>205</ele>
        <time>2013-01-17T13:40:23Z</time>
      </trkpt>
      <trkpt lat="48.24551" lon="-0.41922">
        <ele>205</ele>
        <time>2013-01-17T13:40:33Z</time>
      </trkpt>
      <trkpt lat="48.24535" lon="-0.41938">
        <ele>208</ele>
        <time>2013-01-17T13:40:44Z</time>
      </trkpt>
      <trkpt lat="48.24521" lon="-0.41954">
        <ele>210</ele>
        <time>2013-01-17T13:40:54Z</time>
      </trkpt>
      <trkpt lat="48.24507" lon="-0.41973">
        <ele>210</ele>
        <time>2013-01-17T13:41:04Z</time>
      </trkpt>
      <trkpt lat="48.24491" lon="-0.41991">
        <ele>214</ele>
        <time>2013-01-17T13:41:15Z</time>
      </trkpt>
      <trkpt lat="48.24476" lon="-0.42008">
        <ele>214</ele>
        <time>2013-01-17T13:41:25Z</time>
      </trkpt>
      <trkpt lat="48.2446" lon="-0.42029">
        <ele>213</ele>
        <time>2013-01-17T13:41:35Z</time>
      </trkpt>
      <trkpt lat="48.24449" lon="-0.42041">
        <ele>214</ele>
        <time>2013-01-17T13:41:40Z</time>
      </trkpt>
      <trkpt lat="48.24443" lon="-0.42048">
        <ele>215</ele>
        <time>2013-01-17T13:41:43Z</time>
      </trkpt>
      <trkpt lat="48.24427" lon="-0.42068">
        <ele>211</ele>
        <time>2013-01-17T13:41:50Z</time>
      </trkpt>
      <trkpt lat="48.24414" lon="-0.42081">
        <ele>214</ele>
        <time>2013-01-17T13:41:55Z</time>
      </trkpt>
      <trkpt lat="48.24396" lon="-0.42095">
        <ele>218</ele>
        <time>2013-01-17T13:42:02Z</time>
      </trkpt>
      <trkpt lat="48.2437" lon="-0.42111">
        <ele>213</ele>
        <time>2013-01-17T13:42:10Z</time>
      </trkpt>
      <trkpt lat="48.24358" lon="-0.42115">
        <ele>212</ele>
        <time>2013-01-17T13:42:13Z</time>
      </trkpt>
      <trkpt lat="48.24331" lon="-0.42122">
        <ele>212</ele>
        <time>2013-01-17T13:42:19Z</time>
      </trkpt>
      <trkpt lat="48.24297" lon="-0.42132">
        <ele>213</ele>
        <time>2013-01-17T13:42:25Z</time>
      </trkpt>
      <trkpt lat="48.24281" lon="-0.42141">
        <ele>216</ele>
        <time>2013-01-17T13:42:28Z</time>
      </trkpt>
      <trkpt lat="48.24265" lon="-0.42154">
        <ele>212</ele>
        <time>2013-01-17T13:42:31Z</time>
      </trkpt>
      <trkpt lat="48.24236" lon="-0.42194">
        <ele>210</ele>
        <time>2013-01-17T13:42:37Z</time>
      </trkpt>
      <trkpt lat="48.24223" lon="-0.42217">
        <ele>210</ele>
        <time>2013-01-17T13:42:40Z</time>
      </trkpt>
      <trkpt lat="48.24212" lon="-0.42241">
        <ele>208</ele>
        <time>2013-01-17T13:42:43Z</time>
      </trkpt>
      <trkpt lat="48.24201" lon="-0.42265">
        <ele>208</ele>
        <time>2013-01-17T13:42:46Z</time>
      </trkpt>
      <trkpt lat="48.24184" lon="-0.42303">
        <ele>205</ele>
        <time>2013-01-17T13:42:51Z</time>
      </trkpt>
      <trkpt lat="48.24167" lon="-0.42337">
        <ele>205</ele>
        <time>2013-01-17T13:42:56Z</time>
      </trkpt>
      <trkpt lat="48.24152" lon="-0.4237">
        <ele>202</ele>
        <time>2013-01-17T13:43:01Z</time>
      </trkpt>
      <trkpt lat="48.24144" lon="-0.42388">
        <ele>202</ele>
        <time>2013-01-17T13:43:04Z</time>
      </trkpt>
      <trkpt lat="48.2413" lon="-0.42418">
        <ele>201</ele>
        <time>2013-01-17T13:43:09Z</time>
      </trkpt>
      <trkpt lat="48.24115" lon="-0.42448">
        <ele>203</ele>
        <time>2013-01-17T13:43:14Z</time>
      </trkpt>
      <trkpt lat="48.24107" lon="-0.42467">
        <ele>204</ele>
        <time>2013-01-17T13:43:17Z</time>
      </trkpt>
      <trkpt lat="48.24098" lon="-0.42485">
        <ele>203</ele>
        <time>2013-01-17T13:43:20Z</time>
      </trkpt>
      <trkpt lat="48.2409" lon="-0.42502">
        <ele>201</ele>
        <time>2013-01-17T13:43:23Z</time>
      </trkpt>
      <trkpt lat="48.24072" lon="-0.42538">
        <ele>199</ele>
        <time>2013-01-17T13:43:29Z</time>
      </trkpt>
      <trkpt lat="48.24062" lon="-0.42556">
        <ele>200</ele>
        <time>2013-01-17T13:43:32Z</time>
      </trkpt>
      <trkpt lat="48.24052" lon="-0.42572">
        <ele>201</ele>
        <time>2013-01-17T13:43:35Z</time>
      </trkpt>
      <trkpt lat="48.24033" lon="-0.42595">
        <ele>203</ele>
        <time>2013-01-17T13:43:40Z</time>
      </trkpt>
      <trkpt lat="48.24022" lon="-0.42606">
        <ele>202</ele>
        <time>2013-01-17T13:43:43Z</time>
      </trkpt>
      <trkpt lat="48.24007" lon="-0.42616">
        <ele>204</ele>
        <time>2013-01-17T13:43:48Z</time>
      </trkpt>
      <trkpt lat="48.23997" lon="-0.42623">
        <ele>198</ele>
        <time>2013-01-17T13:43:50Z</time>
      </trkpt>
      <trkpt lat="48.23974" lon="-0.42637">
        <ele>201</ele>
        <time>2013-01-17T13:43:56Z</time>
      </trkpt>
      <trkpt lat="48.23963" lon="-0.42643">
        <ele>200</ele>
        <time>2013-01-17T13:44:01Z</time>
      </trkpt>
      <trkpt lat="48.23963" lon="-0.42643">
        <ele>159.9</ele>
        <time>2013-01-17T13:44:07Z</time>
      </trkpt>
      <trkpt lat="48.23963" lon="-0.42643">
        <ele>159.9</ele>
        <time>2013-01-17T13:47:31Z</time>
      </trkpt>
      <trkpt lat="48.23907" lon="-0.42523">
        <ele>192</ele>
        <time>2013-01-17T13:47:44Z</time>
      </trkpt>
      <trkpt lat="48.23878" lon="-0.42462">
        <ele>182</ele>
        <time>2013-01-17T13:47:51Z</time>
      </trkpt>
      <trkpt lat="48.23858" lon="-0.42419">
        <ele>181</ele>
        <time>2013-01-17T13:47:57Z</time>
      </trkpt>
      <trkpt lat="48.23845" lon="-0.42397">
        <ele>188</ele>
        <time>2013-01-17T13:48:00Z</time>
      </trkpt>
      <trkpt lat="48.23834" lon="-0.42377">
        <ele>183</ele>
        <time>2013-01-17T13:48:03Z</time>
      </trkpt>
      <trkpt lat="48.23824" lon="-0.42353">
        <ele>189</ele>
        <time>2013-01-17T13:48:08Z</time>
      </trkpt>
      <trkpt lat="48.23811" lon="-0.42324">
        <ele>192</ele>
        <time>2013-01-17T13:48:15Z</time>
      </trkpt>
      <trkpt lat="48.23804" lon="-0.42306">
        <ele>192</ele>
        <time>2013-01-17T13:48:19Z</time>
      </trkpt>
      <trkpt lat="48.23798" lon="-0.42275">
        <ele>194</ele>
        <time>2013-01-17T13:48:26Z</time>
      </trkpt>
      <trkpt lat="48.23801" lon="-0.42245">
        <ele>197</ele>
        <time>2013-01-17T13:48:34Z</time>
      </trkpt>
      <trkpt lat="48.23803" lon="-0.42229">
        <ele>196</ele>
        <time>2013-01-17T13:48:39Z</time>
      </trkpt>
      <trkpt lat="48.23809" lon="-0.42199">
        <ele>195</ele>
        <time>2013-01-17T13:48:49Z</time>
      </trkpt>
      <trkpt lat="48.23816" lon="-0.42169">
        <ele>200</ele>
        <time>2013-01-17T13:48:59Z</time>
      </trkpt>
      <trkpt lat="48.23821" lon="-0.42143">
        <ele>199</ele>
        <time>2013-01-17T13:49:08Z</time>
      </trkpt>
      <trkpt lat="48.23824" lon="-0.42126">
        <ele>200</ele>
        <time>2013-01-17T13:49:14Z</time>
      </trkpt>
      <trkpt lat="48.2383" lon="-0.42096">
        <ele>199</ele>
        <time>2013-01-17T13:49:24Z</time>
      </trkpt>
      <trkpt lat="48.23838" lon="-0.4206">
        <ele>200</ele>
        <time>2013-01-17T13:49:35Z</time>
      </trkpt>
      <trkpt lat="48.2384" lon="-0.42051">
        <ele>203</ele>
        <time>2013-01-17T13:49:38Z</time>
      </trkpt>
      <trkpt lat="48.23845" lon="-0.42023">
        <ele>205</ele>
        <time>2013-01-17T13:49:48Z</time>
      </trkpt>
      <trkpt lat="48.2385" lon="-0.41995">
        <ele>199</ele>
        <time>2013-01-17T13:49:58Z</time>
      </trkpt>
      <trkpt lat="48.23854" lon="-0.41972">
        <ele>206</ele>
        <time>2013-01-17T13:50:08Z</time>
      </trkpt>
      <trkpt lat="48.23859" lon="-0.41949">
        <ele>208</ele>
        <time>2013-01-17T13:50:17Z</time>
      </trkpt>
      <trkpt lat="48.23864" lon="-0.41923">
        <ele>203</ele>
        <time>2013-01-17T13:50:28Z</time>
      </trkpt>
      <trkpt lat="48.23868" lon="-0.41897">
        <ele>207</ele>
        <time>2013-01-17T13:50:38Z</time>
      </trkpt>
      <trkpt lat="48.23868" lon="-0.41874">
        <ele>213</ele>
        <time>2013-01-17T13:50:47Z</time>
      </trkpt>
      <trkpt lat="48.23864" lon="-0.41843">
        <ele>214</ele>
        <time>2013-01-17T13:50:59Z</time>
      </trkpt>
      <trkpt lat="48.23861" lon="-0.41817">
        <ele>213</ele>
        <time>2013-01-17T13:51:11Z</time>
      </trkpt>
      <trkpt lat="48.23857" lon="-0.41785">
        <ele>213</ele>
        <time>2013-01-17T13:51:25Z</time>
      </trkpt>
      <trkpt lat="48.23854" lon="-0.41755">
        <ele>215</ele>
        <time>2013-01-17T13:51:37Z</time>
      </trkpt>
      <trkpt lat="48.23851" lon="-0.41731">
        <ele>214</ele>
        <time>2013-01-17T13:51:48Z</time>
      </trkpt>
      <trkpt lat="48.23846" lon="-0.41695">
        <ele>218</ele>
        <time>2013-01-17T13:52:03Z</time>
      </trkpt>
      <trkpt lat="48.23844" lon="-0.41682">
        <ele>223</ele>
        <time>2013-01-17T13:52:09Z</time>
      </trkpt>
      <trkpt lat="48.23842" lon="-0.41665">
        <ele>224</ele>
        <time>2013-01-17T13:52:16Z</time>
      </trkpt>
      <trkpt lat="48.2384" lon="-0.41639">
        <ele>219</ele>
        <time>2013-01-17T13:52:27Z</time>
      </trkpt>
      <trkpt lat="48.23838" lon="-0.41618">
        <ele>218</ele>
        <time>2013-01-17T13:52:35Z</time>
      </trkpt>
      <trkpt lat="48.23833" lon="-0.41593">
        <ele>221</ele>
        <time>2013-01-17T13:52:47Z</time>
      </trkpt>
      <trkpt lat="48.23825" lon="-0.41568">
        <ele>215</ele>
        <time>2013-01-17T13:53:00Z</time>
      </trkpt>
      <trkpt lat="48.23814" lon="-0.4155">
        <ele>223</ele>
        <time>2013-01-17T13:53:12Z</time>
      </trkpt>
      <trkpt lat="48.23796" lon="-0.4153">
        <ele>222</ele>
        <time>2013-01-17T13:53:28Z</time>
      </trkpt>
      <trkpt lat="48.23778" lon="-0.41509">
        <ele>222</ele>
        <time>2013-01-17T13:53:42Z</time>
      </trkpt>
      <trkpt lat="48.23764" lon="-0.41493">
        <ele>216</ele>
        <time>2013-01-17T13:53:50Z</time>
      </trkpt>
      <trkpt lat="48.23714" lon="-0.41434">
        <ele>212</ele>
        <time>2013-01-17T13:54:00Z</time>
      </trkpt>
      <trkpt lat="48.23697" lon="-0.41417">
        <ele>215</ele>
        <time>2013-01-17T13:54:06Z</time>
      </trkpt>
      <trkpt lat="48.23687" lon="-0.41407">
        <ele>215</ele>
        <time>2013-01-17T13:54:12Z</time>
      </trkpt>
      <trkpt lat="48.23672" lon="-0.41392">
        <ele>215</ele>
        <time>2013-01-17T13:54:23Z</time>
      </trkpt>
      <trkpt lat="48.23662" lon="-0.41382">
        <ele>221</ele>
        <time>2013-01-17T13:54:30Z</time>
      </trkpt>
      <trkpt lat="48.23647" lon="-0.41363">
        <ele>222</ele>
        <time>2013-01-17T13:54:42Z</time>
      </trkpt>
      <trkpt lat="48.23633" lon="-0.4135">
        <ele>225</ele>
        <time>2013-01-17T13:54:52Z</time>
      </trkpt>
      <trkpt lat="48.23621" lon="-0.41338">
        <ele>225</ele>
        <time>2013-01-17T13:55:01Z</time>
      </trkpt>
      <trkpt lat="48.23608" lon="-0.41323">
        <ele>229</ele>
        <time>2013-01-17T13:55:12Z</time>
      </trkpt>
      <trkpt lat="48.23608" lon="-0.41323">
        <ele>191.2</ele>
        <time>2013-01-17T13:55:19Z</time>
      </trkpt>
      <trkpt lat="48.23608" lon="-0.41323">
        <ele>191.2</ele>
        <time>2013-01-17T13:56:28Z</time>
      </trkpt>
      <trkpt lat="48.23569" lon="-0.41278">
        <ele>233</ele>
        <time>2013-01-17T13:56:41Z</time>
      </trkpt>
      <trkpt lat="48.23554" lon="-0.41264">
        <ele>236</ele>
        <time>2013-01-17T13:56:56Z</time>
      </trkpt>
      <trkpt lat="48.23541" lon="-0.41247">
        <ele>241</ele>
        <time>2013-01-17T13:57:11Z</time>
      </trkpt>
      <trkpt lat="48.23527" lon="-0.41227">
        <ele>241</ele>
        <time>2013-01-17T13:57:29Z</time>
      </trkpt>
      <trkpt lat="48.23527" lon="-0.41227">
        <ele>241</ele>
        <time>2013-01-17T14:01:06Z</time>
      </trkpt>
      <trkpt lat="48.235" lon="-0.41206">
        <ele>246</ele>
        <time>2013-01-17T14:01:41Z</time>
      </trkpt>
      <trkpt lat="48.23488" lon="-0.41191">
        <ele>246</ele>
        <time>2013-01-17T14:01:54Z</time>
      </trkpt>
      <trkpt lat="48.23486" lon="-0.41188">
        <ele>247</ele>
        <time>2013-01-17T14:01:59Z</time>
      </trkpt>
      <trkpt lat="48.23486" lon="-0.41188">
        <ele>207</ele>
        <time>2013-01-17T14:02:08Z</time>
      </trkpt>
      <trkpt lat="48.23486" lon="-0.41188">
        <ele>207</ele>
        <time>2013-01-17T14:02:42Z</time>
      </trkpt>
      <trkpt lat="48.23462" lon="-0.41161">
        <ele>251</ele>
        <time>2013-01-17T14:02:54Z</time>
      </trkpt>
      <trkpt lat="48.23448" lon="-0.41144">
        <ele>252</ele>
        <time>2013-01-17T14:03:10Z</time>
      </trkpt>
      <trkpt lat="48.23433" lon="-0.4113">
        <ele>255</ele>
        <time>2013-01-17T14:03:23Z</time>
      </trkpt>
      <trkpt lat="48.23422" lon="-0.41114">
        <ele>259</ele>
        <time>2013-01-17T14:03:39Z</time>
      </trkpt>
      <trkpt lat="48.23413" lon="-0.41104">
        <ele>258</ele>
        <time>2013-01-17T14:03:49Z</time>
      </trkpt>
      <trkpt lat="48.23396" lon="-0.41087">
        <ele>259</ele>
        <time>2013-01-17T14:04:06Z</time>
      </trkpt>
      <trkpt lat="48.23383" lon="-0.41073">
        <ele>260</ele>
        <time>2013-01-17T14:04:19Z</time>
      </trkpt>
      <trkpt lat="48.2337" lon="-0.41058">
        <ele>260</ele>
        <time>2013-01-17T14:04:33Z</time>
      </trkpt>
      <trkpt lat="48.23357" lon="-0.41044">
        <ele>259</ele>
        <time>2013-01-17T14:04:46Z</time>
      </trkpt>
      <trkpt lat="48.23349" lon="-0.41034">
        <ele>262</ele>
        <time>2013-01-17T14:04:55Z</time>
      </trkpt>
      <trkpt lat="48.23338" lon="-0.41021">
        <ele>262</ele>
        <time>2013-01-17T14:05:03Z</time>
      </trkpt>
      <trkpt lat="48.2333" lon="-0.41015">
        <ele>260</ele>
        <time>2013-01-17T14:05:08Z</time>
      </trkpt>
      <trkpt lat="48.23314" lon="-0.40997">
        <ele>257</ele>
        <time>2013-01-17T14:05:19Z</time>
      </trkpt>
      <trkpt lat="48.23306" lon="-0.40987">
        <ele>250</ele>
        <time>2013-01-17T14:05:25Z</time>
      </trkpt>
      <trkpt lat="48.23293" lon="-0.40973">
        <ele>251</ele>
        <time>2013-01-17T14:05:34Z</time>
      </trkpt>
      <trkpt lat="48.23272" lon="-0.40951">
        <ele>240</ele>
        <time>2013-01-17T14:05:44Z</time>
      </trkpt>
      <trkpt lat="48.2325" lon="-0.40927">
        <ele>245</ele>
        <time>2013-01-17T14:05:54Z</time>
      </trkpt>
      <trkpt lat="48.23227" lon="-0.40917">
        <ele>246</ele>
        <time>2013-01-17T14:06:01Z</time>
      </trkpt>
      <trkpt lat="48.23212" lon="-0.40885">
        <ele>254</ele>
        <time>2013-01-17T14:12:01Z</time>
      </trkpt>
      <trkpt lat="48.23204" lon="-0.40856">
        <ele>254</ele>
        <time>2013-01-17T14:12:10Z</time>
      </trkpt>
      <trkpt lat="48.23196" lon="-0.40836">
        <ele>250</ele>
        <time>2013-01-17T14:12:16Z</time>
      </trkpt>
      <trkpt lat="48.23183" lon="-0.40824">
        <ele>255</ele>
        <time>2013-01-17T14:12:22Z</time>
      </trkpt>
      <trkpt lat="48.2317" lon="-0.40818">
        <ele>246</ele>
        <time>2013-01-17T14:12:27Z</time>
      </trkpt>
      <trkpt lat="48.23158" lon="-0.40815">
        <ele>246</ele>
        <time>2013-01-17T14:12:32Z</time>
      </trkpt>
      <trkpt lat="48.23138" lon="-0.40818">
        <ele>250</ele>
        <time>2013-01-17T14:12:40Z</time>
      </trkpt>
      <trkpt lat="48.23118" lon="-0.40824">
        <ele>248</ele>
        <time>2013-01-17T14:12:48Z</time>
      </trkpt>
      <trkpt lat="48.23103" lon="-0.40842">
        <ele>247</ele>
        <time>2013-01-17T14:12:57Z</time>
      </trkpt>
      <trkpt lat="48.23092" lon="-0.40858">
        <ele>243</ele>
        <time>2013-01-17T14:13:04Z</time>
      </trkpt>
      <trkpt lat="48.23081" lon="-0.4087">
        <ele>242</ele>
        <time>2013-01-17T14:13:13Z</time>
      </trkpt>
      <trkpt lat="48.23075" lon="-0.40854">
        <ele>246</ele>
        <time>2013-01-17T14:13:23Z</time>
      </trkpt>
      <trkpt lat="48.23075" lon="-0.40854">
        <ele>205.6</ele>
        <time>2013-01-17T14:13:32Z</time>
      </trkpt>
      <trkpt lat="48.23075" lon="-0.40854">
        <ele>205.6</ele>
        <time>2013-01-17T14:18:20Z</time>
      </trkpt>
      <trkpt lat="48.23114" lon="-0.40829">
        <ele>240</ele>
        <time>2013-01-17T14:18:32Z</time>
      </trkpt>
      <trkpt lat="48.23133" lon="-0.40821">
        <ele>242</ele>
        <time>2013-01-17T14:18:42Z</time>
      </trkpt>
      <trkpt lat="48.23153" lon="-0.40817">
        <ele>244</ele>
        <time>2013-01-17T14:18:51Z</time>
      </trkpt>
      <trkpt lat="48.23174" lon="-0.40818">
        <ele>236</ele>
        <time>2013-01-17T14:19:03Z</time>
      </trkpt>
      <trkpt lat="48.23174" lon="-0.40818">
        <ele>236</ele>
        <time>2013-01-17T14:19:11Z</time>
      </trkpt>
      <trkpt lat="48.23174" lon="-0.40818">
        <ele>209.8</ele>
        <time>2013-01-17T14:45:41Z</time>
      </trkpt>
      <trkpt lat="48.23201" lon="-0.40859">
        <ele>248</ele>
        <time>2013-01-17T14:45:48Z</time>
      </trkpt>
      <trkpt lat="48.23213" lon="-0.40889">
        <ele>254</ele>
        <time>2013-01-17T14:45:59Z</time>
      </trkpt>
      <trkpt lat="48.23229" lon="-0.40914">
        <ele>252</ele>
        <time>2013-01-17T14:46:09Z</time>
      </trkpt>
      <trkpt lat="48.23251" lon="-0.40915">
        <ele>253</ele>
        <time>2013-01-17T14:46:19Z</time>
      </trkpt>
      <trkpt lat="48.23273" lon="-0.4091">
        <ele>257</ele>
        <time>2013-01-17T14:46:29Z</time>
      </trkpt>
      <trkpt lat="48.23292" lon="-0.40899">
        <ele>255</ele>
        <time>2013-01-17T14:46:39Z</time>
      </trkpt>
      <trkpt lat="48.23313" lon="-0.40877">
        <ele>258</ele>
        <time>2013-01-17T14:46:51Z</time>
      </trkpt>
      <trkpt lat="48.23329" lon="-0.40854">
        <ele>262</ele>
        <time>2013-01-17T14:47:01Z</time>
      </trkpt>
      <trkpt lat="48.23336" lon="-0.40836">
        <ele>261</ele>
        <time>2013-01-17T14:47:08Z</time>
      </trkpt>
      <trkpt lat="48.23345" lon="-0.40802">
        <ele>266</ele>
        <time>2013-01-17T14:47:22Z</time>
      </trkpt>
      <trkpt lat="48.23349" lon="-0.4078">
        <ele>265</ele>
        <time>2013-01-17T14:47:31Z</time>
      </trkpt>
      <trkpt lat="48.23352" lon="-0.40764">
        <ele>263</ele>
        <time>2013-01-17T14:47:38Z</time>
      </trkpt>
      <trkpt lat="48.2335" lon="-0.40729">
        <ele>265</ele>
        <time>2013-01-17T14:47:53Z</time>
      </trkpt>
      <trkpt lat="48.23347" lon="-0.40701">
        <ele>263</ele>
        <time>2013-01-17T14:48:03Z</time>
      </trkpt>
      <trkpt lat="48.23346" lon="-0.40683">
        <ele>261</ele>
        <time>2013-01-17T14:48:12Z</time>
      </trkpt>
      <trkpt lat="48.2335" lon="-0.4065">
        <ele>265</ele>
        <time>2013-01-17T14:48:27Z</time>
      </trkpt>
      <trkpt lat="48.23351" lon="-0.40637">
        <ele>272</ele>
        <time>2013-01-17T14:48:37Z</time>
      </trkpt>
      <trkpt lat="48.23353" lon="-0.40617">
        <ele>271</ele>
        <time>2013-01-17T14:48:46Z</time>
      </trkpt>
      <trkpt lat="48.23357" lon="-0.40599">
        <ele>275</ele>
        <time>2013-01-17T14:48:57Z</time>
      </trkpt>
      <trkpt lat="48.23359" lon="-0.4058">
        <ele>280</ele>
        <time>2013-01-17T14:49:06Z</time>
      </trkpt>
      <trkpt lat="48.23362" lon="-0.40558">
        <ele>285</ele>
        <time>2013-01-17T14:49:18Z</time>
      </trkpt>
      <trkpt lat="48.23365" lon="-0.40537">
        <ele>287</ele>
        <time>2013-01-17T14:49:29Z</time>
      </trkpt>
      <trkpt lat="48.2337" lon="-0.40523">
        <ele>286</ele>
        <time>2013-01-17T14:49:39Z</time>
      </trkpt>
      <trkpt lat="48.23377" lon="-0.40491">
        <ele>284</ele>
        <time>2013-01-17T14:49:58Z</time>
      </trkpt>
      <trkpt lat="48.23386" lon="-0.40462">
        <ele>285</ele>
        <time>2013-01-17T14:50:17Z</time>
      </trkpt>
      <trkpt lat="48.23389" lon="-0.4045">
        <ele>283</ele>
        <time>2013-01-17T14:50:25Z</time>
      </trkpt>
      <trkpt lat="48.23389" lon="-0.4045">
        <ele>245.8</ele>
        <time>2013-01-17T14:50:33Z</time>
      </trkpt>
      <trkpt lat="48.23389" lon="-0.4045">
        <ele>245.8</ele>
        <time>2013-01-17T14:50:39Z</time>
      </trkpt>
      <trkpt lat="48.23394" lon="-0.40416">
        <ele>290</ele>
        <time>2013-01-17T14:50:49Z</time>
      </trkpt>
      <trkpt lat="48.23399" lon="-0.40388">
        <ele>295</ele>
        <time>2013-01-17T14:51:06Z</time>
      </trkpt>
      <trkpt lat="48.234" lon="-0.40358">
        <ele>294</ele>
        <time>2013-01-17T14:51:23Z</time>
      </trkpt>
      <trkpt lat="48.23398" lon="-0.40337">
        <ele>297</ele>
        <time>2013-01-17T14:51:37Z</time>
      </trkpt>
      <trkpt lat="48.23393" lon="-0.40291">
        <ele>294</ele>
        <time>2013-01-17T14:52:11Z</time>
      </trkpt>
      <trkpt lat="48.23392" lon="-0.40265">
        <ele>297</ele>
        <time>2013-01-17T14:52:21Z</time>
      </trkpt>
      <trkpt lat="48.2339" lon="-0.40224">
        <ele>300</ele>
        <time>2013-01-17T14:52:35Z</time>
      </trkpt>
      <trkpt lat="48.23392" lon="-0.40195">
        <ele>294</ele>
        <time>2013-01-17T14:52:45Z</time>
      </trkpt>
      <trkpt lat="48.23397" lon="-0.4017">
        <ele>291</ele>
        <time>2013-01-17T14:52:56Z</time>
      </trkpt>
      <trkpt lat="48.23402" lon="-0.40131">
        <ele>293</ele>
        <time>2013-01-17T14:53:12Z</time>
      </trkpt>
      <trkpt lat="48.23412" lon="-0.40115">
        <ele>299</ele>
        <time>2013-01-17T14:53:26Z</time>
      </trkpt>
      <trkpt lat="48.23419" lon="-0.40105">
        <ele>300</ele>
        <time>2013-01-17T14:53:35Z</time>
      </trkpt>
      <trkpt lat="48.23423" lon="-0.40096">
        <ele>295</ele>
        <time>2013-01-17T14:53:42Z</time>
      </trkpt>
      <trkpt lat="48.23423" lon="-0.40096">
        <ele>266.7</ele>
        <time>2013-01-17T14:53:49Z</time>
      </trkpt>
      <trkpt lat="48.23423" lon="-0.40096">
        <ele>266.7</ele>
        <time>2013-01-17T14:54:47Z</time>
      </trkpt>
      <trkpt lat="48.23448" lon="-0.40032">
        <ele>309</ele>
        <time>2013-01-17T14:55:02Z</time>
      </trkpt>
      <trkpt lat="48.23463" lon="-0.40009">
        <ele>309</ele>
        <time>2013-01-17T14:55:18Z</time>
      </trkpt>
      <trkpt lat="48.2349" lon="-0.39995">
        <ele>311</ele>
        <time>2013-01-17T14:55:29Z</time>
      </trkpt>
      <trkpt lat="48.23506" lon="-0.39996">
        <ele>311</ele>
        <time>2013-01-17T14:55:38Z</time>
      </trkpt>
      <trkpt lat="48.23525" lon="-0.40012">
        <ele>303</ele>
        <time>2013-01-17T14:55:49Z</time>
      </trkpt>
      <trkpt lat="48.23536" lon="-0.40025">
        <ele>306</ele>
        <time>2013-01-17T14:55:58Z</time>
      </trkpt>
      <trkpt lat="48.23545" lon="-0.40048">
        <ele>311</ele>
        <time>2013-01-17T14:56:12Z</time>
      </trkpt>
      <trkpt lat="48.23545" lon="-0.40058">
        <ele>324</ele>
        <time>2013-01-17T14:56:22Z</time>
      </trkpt>
      <trkpt lat="48.23539" lon="-0.40075">
        <ele>326</ele>
        <time>2013-01-17T14:56:36Z</time>
      </trkpt>
      <trkpt lat="48.23538" lon="-0.40079">
        <ele>326</ele>
        <time>2013-01-17T14:56:39Z</time>
      </trkpt>
      <trkpt lat="48.23538" lon="-0.40079">
        <ele>279.3</ele>
        <time>2013-01-17T14:56:47Z</time>
      </trkpt>
      <trkpt lat="48.23538" lon="-0.40079">
        <ele>279.3</ele>
        <time>2013-01-17T14:56:56Z</time>
      </trkpt>
      <trkpt lat="48.23536" lon="-0.40112">
        <ele>333</ele>
        <time>2013-01-17T14:57:10Z</time>
      </trkpt>
      <trkpt lat="48.2353" lon="-0.40139">
        <ele>330</ele>
        <time>2013-01-17T14:57:27Z</time>
      </trkpt>
      <trkpt lat="48.2353" lon="-0.40156">
        <ele>327</ele>
        <time>2013-01-17T14:57:38Z</time>
      </trkpt>
      <trkpt lat="48.23531" lon="-0.4018">
        <ele>321</ele>
        <time>2013-01-17T14:57:46Z</time>
      </trkpt>
      <trkpt lat="48.23542" lon="-0.40198">
        <ele>320</ele>
        <time>2013-01-17T14:57:55Z</time>
      </trkpt>
      <trkpt lat="48.23553" lon="-0.40214">
        <ele>328</ele>
        <time>2013-01-17T14:58:04Z</time>
      </trkpt>
      <trkpt lat="48.23567" lon="-0.40243">
        <ele>332</ele>
        <time>2013-01-17T14:58:16Z</time>
      </trkpt>
      <trkpt lat="48.23568" lon="-0.4026">
        <ele>335</ele>
        <time>2013-01-17T14:58:23Z</time>
      </trkpt>
      <trkpt lat="48.2358" lon="-0.40284">
        <ele>330</ele>
        <time>2013-01-17T14:58:40Z</time>
      </trkpt>
      <trkpt lat="48.2358" lon="-0.40284">
        <ele>330</ele>
        <time>2013-01-17T15:00:49Z</time>
      </trkpt>
      <trkpt lat="48.23588" lon="-0.40264">
        <ele>335</ele>
        <time>2013-01-17T15:09:23Z</time>
      </trkpt>
      <trkpt lat="48.23588" lon="-0.40264">
        <ele>335</ele>
        <time>2013-01-17T15:09:29Z</time>
      </trkpt>
      <trkpt lat="48.23588" lon="-0.40264">
        <ele>289.6</ele>
        <time>2013-01-17T15:09:35Z</time>
      </trkpt>
      <trkpt lat="48.23598" lon="-0.40292">
        <ele>329</ele>
        <time>2013-01-17T15:09:40Z</time>
      </trkpt>
      <trkpt lat="48.23598" lon="-0.40292">
        <ele>288.2</ele>
        <time>2013-01-17T15:09:46Z</time>
      </trkpt>
      <trkpt lat="48.23598" lon="-0.40292">
        <ele>288.2</ele>
        <time>2013-01-17T15:12:28Z</time>
      </trkpt>
      <trkpt lat="48.2357" lon="-0.40268">
        <ele>331</ele>
        <time>2013-01-17T15:12:35Z</time>
      </trkpt>
      <trkpt lat="48.23567" lon="-0.40242">
        <ele>330</ele>
        <time>2013-01-17T15:12:45Z</time>
      </trkpt>
      <trkpt lat="48.23548" lon="-0.40203">
        <ele>316</ele>
        <time>2013-01-17T15:13:00Z</time>
      </trkpt>
      <trkpt lat="48.23533" lon="-0.40178">
        <ele>320</ele>
        <time>2013-01-17T15:13:07Z</time>
      </trkpt>
      <trkpt lat="48.23534" lon="-0.40149">
        <ele>323</ele>
        <time>2013-01-17T15:13:16Z</time>
      </trkpt>
      <trkpt lat="48.23534" lon="-0.40136">
        <ele>319</ele>
        <time>2013-01-17T15:13:22Z</time>
      </trkpt>
      <trkpt lat="48.23541" lon="-0.40101">
        <ele>313</ele>
        <time>2013-01-17T15:13:33Z</time>
      </trkpt>
      <trkpt lat="48.23546" lon="-0.40079">
        <ele>310</ele>
        <time>2013-01-17T15:13:39Z</time>
      </trkpt>
      <trkpt lat="48.2355" lon="-0.40051">
        <ele>302</ele>
        <time>2013-01-17T15:13:47Z</time>
      </trkpt>
      <trkpt lat="48.23538" lon="-0.40031">
        <ele>305</ele>
        <time>2013-01-17T15:13:54Z</time>
      </trkpt>
      <trkpt lat="48.23515" lon="-0.40015">
        <ele>317</ele>
        <time>2013-01-17T15:14:02Z</time>
      </trkpt>
      <trkpt lat="48.235" lon="-0.40006">
        <ele>316</ele>
        <time>2013-01-17T15:14:08Z</time>
      </trkpt>
      <trkpt lat="48.23474" lon="-0.40011">
        <ele>302</ele>
        <time>2013-01-17T15:14:18Z</time>
      </trkpt>
      <trkpt lat="48.23453" lon="-0.40028">
        <ele>305</ele>
        <time>2013-01-17T15:14:27Z</time>
      </trkpt>
      <trkpt lat="48.23437" lon="-0.4005">
        <ele>300</ele>
        <time>2013-01-17T15:14:36Z</time>
      </trkpt>
      <trkpt lat="48.23421" lon="-0.40065">
        <ele>303</ele>
        <time>2013-01-17T15:14:42Z</time>
      </trkpt>
      <trkpt lat="48.23393" lon="-0.40056">
        <ele>304</ele>
        <time>2013-01-17T15:14:50Z</time>
      </trkpt>
      <trkpt lat="48.23372" lon="-0.40063">
        <ele>300</ele>
        <time>2013-01-17T15:14:55Z</time>
      </trkpt>
      <trkpt lat="48.23359" lon="-0.40063">
        <ele>299</ele>
        <time>2013-01-17T15:14:58Z</time>
      </trkpt>
      <trkpt lat="48.23331" lon="-0.40059">
        <ele>295</ele>
        <time>2013-01-17T15:15:03Z</time>
      </trkpt>
      <trkpt lat="48.23296" lon="-0.40049">
        <ele>297</ele>
        <time>2013-01-17T15:15:09Z</time>
      </trkpt>
      <trkpt lat="48.23268" lon="-0.40021">
        <ele>299</ele>
        <time>2013-01-17T15:15:15Z</time>
      </trkpt>
      <trkpt lat="48.2326" lon="-0.39985">
        <ele>300</ele>
        <time>2013-01-17T15:15:21Z</time>
      </trkpt>
      <trkpt lat="48.23257" lon="-0.39951">
        <ele>299</ele>
        <time>2013-01-17T15:15:28Z</time>
      </trkpt>
      <trkpt lat="48.23254" lon="-0.39928">
        <ele>298</ele>
        <time>2013-01-17T15:15:32Z</time>
      </trkpt>
      <trkpt lat="48.23249" lon="-0.39887">
        <ele>294</ele>
        <time>2013-01-17T15:15:38Z</time>
      </trkpt>
      <trkpt lat="48.23245" lon="-0.39842">
        <ele>290</ele>
        <time>2013-01-17T15:15:44Z</time>
      </trkpt>
      <trkpt lat="48.23241" lon="-0.39801">
        <ele>290</ele>
        <time>2013-01-17T15:15:49Z</time>
      </trkpt>
      <trkpt lat="48.23241" lon="-0.39758">
        <ele>288</ele>
        <time>2013-01-17T15:15:54Z</time>
      </trkpt>
      <trkpt lat="48.23256" lon="-0.39713">
        <ele>284</ele>
        <time>2013-01-17T15:16:00Z</time>
      </trkpt>
      <trkpt lat="48.23267" lon="-0.39698">
        <ele>285</ele>
        <time>2013-01-17T15:16:03Z</time>
      </trkpt>
      <trkpt lat="48.23282" lon="-0.39686">
        <ele>288</ele>
        <time>2013-01-17T15:16:07Z</time>
      </trkpt>
      <trkpt lat="48.23307" lon="-0.39673">
        <ele>287</ele>
        <time>2013-01-17T15:16:13Z</time>
      </trkpt>
      <trkpt lat="48.23324" lon="-0.39666">
        <ele>288</ele>
        <time>2013-01-17T15:16:18Z</time>
      </trkpt>
      <trkpt lat="48.23345" lon="-0.3966">
        <ele>289</ele>
        <time>2013-01-17T15:16:24Z</time>
      </trkpt>
      <trkpt lat="48.23363" lon="-0.39653">
        <ele>286</ele>
        <time>2013-01-17T15:16:29Z</time>
      </trkpt>
      <trkpt lat="48.23393" lon="-0.39642">
        <ele>284</ele>
        <time>2013-01-17T15:16:35Z</time>
      </trkpt>
      <trkpt lat="48.23427" lon="-0.39632">
        <ele>283</ele>
        <time>2013-01-17T15:16:41Z</time>
      </trkpt>
      <trkpt lat="48.23457" lon="-0.39621">
        <ele>282</ele>
        <time>2013-01-17T15:16:46Z</time>
      </trkpt>
      <trkpt lat="48.23494" lon="-0.39607">
        <ele>273</ele>
        <time>2013-01-17T15:16:52Z</time>
      </trkpt>
      <trkpt lat="48.23539" lon="-0.3959">
        <ele>271</ele>
        <time>2013-01-17T15:16:57Z</time>
      </trkpt>
      <trkpt lat="48.23598" lon="-0.39573">
        <ele>266</ele>
        <time>2013-01-17T15:17:04Z</time>
      </trkpt>
      <trkpt lat="48.2364" lon="-0.39556">
        <ele>272</ele>
        <time>2013-01-17T15:17:10Z</time>
      </trkpt>
      <trkpt lat="48.23657" lon="-0.39549">
        <ele>273</ele>
        <time>2013-01-17T15:17:13Z</time>
      </trkpt>
      <trkpt lat="48.23684" lon="-0.39543">
        <ele>267</ele>
        <time>2013-01-17T15:17:18Z</time>
      </trkpt>
      <trkpt lat="48.23708" lon="-0.39542">
        <ele>263</ele>
        <time>2013-01-17T15:17:23Z</time>
      </trkpt>
      <trkpt lat="48.23726" lon="-0.39541">
        <ele>269</ele>
        <time>2013-01-17T15:17:26Z</time>
      </trkpt>
      <trkpt lat="48.23751" lon="-0.39545">
        <ele>276</ele>
        <time>2013-01-17T15:17:31Z</time>
      </trkpt>
      <trkpt lat="48.23793" lon="-0.39556">
        <ele>277</ele>
        <time>2013-01-17T15:17:37Z</time>
      </trkpt>
      <trkpt lat="48.23835" lon="-0.39595">
        <ele>266</ele>
        <time>2013-01-17T15:17:44Z</time>
      </trkpt>
      <trkpt lat="48.23875" lon="-0.39653">
        <ele>261</ele>
        <time>2013-01-17T15:17:50Z</time>
      </trkpt>
      <trkpt lat="48.23917" lon="-0.39707">
        <ele>255</ele>
        <time>2013-01-17T15:17:56Z</time>
      </trkpt>
      <trkpt lat="48.23958" lon="-0.39749">
        <ele>252</ele>
        <time>2013-01-17T15:18:01Z</time>
      </trkpt>
      <trkpt lat="48.24005" lon="-0.39773">
        <ele>247</ele>
        <time>2013-01-17T15:18:07Z</time>
      </trkpt>
      <trkpt lat="48.24033" lon="-0.39785">
        <ele>241</ele>
        <time>2013-01-17T15:18:12Z</time>
      </trkpt>
      <trkpt lat="48.24046" lon="-0.39771">
        <ele>238</ele>
        <time>2013-01-17T15:18:15Z</time>
      </trkpt>
      <trkpt lat="48.24059" lon="-0.3973">
        <ele>235</ele>
        <time>2013-01-17T15:18:20Z</time>
      </trkpt>
      <trkpt lat="48.2406" lon="-0.39704">
        <ele>229</ele>
        <time>2013-01-17T15:18:23Z</time>
      </trkpt>
      <trkpt lat="48.24064" lon="-0.39645">
        <ele>228</ele>
        <time>2013-01-17T15:18:29Z</time>
      </trkpt>
      <trkpt lat="48.24075" lon="-0.39604">
        <ele>223</ele>
        <time>2013-01-17T15:18:34Z</time>
      </trkpt>
      <trkpt lat="48.24084" lon="-0.39578">
        <ele>227</ele>
        <time>2013-01-17T15:18:37Z</time>
      </trkpt>
      <trkpt lat="48.24091" lon="-0.39554">
        <ele>225</ele>
        <time>2013-01-17T15:18:40Z</time>
      </trkpt>
      <trkpt lat="48.24104" lon="-0.395">
        <ele>227</ele>
        <time>2013-01-17T15:18:46Z</time>
      </trkpt>
      <trkpt lat="48.24115" lon="-0.39453">
        <ele>231</ele>
        <time>2013-01-17T15:18:52Z</time>
      </trkpt>
      <trkpt lat="48.24124" lon="-0.39416">
        <ele>231</ele>
        <time>2013-01-17T15:18:57Z</time>
      </trkpt>
      <trkpt lat="48.24129" lon="-0.39396">
        <ele>231</ele>
        <time>2013-01-17T15:19:00Z</time>
      </trkpt>
      <trkpt lat="48.24133" lon="-0.39367">
        <ele>233</ele>
        <time>2013-01-17T15:19:05Z</time>
      </trkpt>
      <trkpt lat="48.24132" lon="-0.39347">
        <ele>227</ele>
        <time>2013-01-17T15:19:08Z</time>
      </trkpt>
      <trkpt lat="48.24129" lon="-0.39308">
        <ele>231</ele>
        <time>2013-01-17T15:19:13Z</time>
      </trkpt>
      <trkpt lat="48.24136" lon="-0.3926">
        <ele>231</ele>
        <time>2013-01-17T15:19:20Z</time>
      </trkpt>
      <trkpt lat="48.24148" lon="-0.39237">
        <ele>234</ele>
        <time>2013-01-17T15:19:25Z</time>
      </trkpt>
      <trkpt lat="48.24163" lon="-0.39214">
        <ele>235</ele>
        <time>2013-01-17T15:19:30Z</time>
      </trkpt>
      <trkpt lat="48.24177" lon="-0.39193">
        <ele>232</ele>
        <time>2013-01-17T15:19:35Z</time>
      </trkpt>
      <trkpt lat="48.24193" lon="-0.39167">
        <ele>229</ele>
        <time>2013-01-17T15:19:40Z</time>
      </trkpt>
      <trkpt lat="48.24211" lon="-0.39147">
        <ele>236</ele>
        <time>2013-01-17T15:19:45Z</time>
      </trkpt>
      <trkpt lat="48.24232" lon="-0.39132">
        <ele>235</ele>
        <time>2013-01-17T15:19:51Z</time>
      </trkpt>
      <trkpt lat="48.24245" lon="-0.39123">
        <ele>233</ele>
        <time>2013-01-17T15:19:55Z</time>
      </trkpt>
      <trkpt lat="48.2426" lon="-0.39112">
        <ele>235</ele>
        <time>2013-01-17T15:20:00Z</time>
      </trkpt>
      <trkpt lat="48.24268" lon="-0.39106">
        <ele>234</ele>
        <time>2013-01-17T15:20:03Z</time>
      </trkpt>
      <trkpt lat="48.24288" lon="-0.3909">
        <ele>237</ele>
        <time>2013-01-17T15:20:11Z</time>
      </trkpt>
      <trkpt lat="48.24303" lon="-0.39077">
        <ele>239</ele>
        <time>2013-01-17T15:20:18Z</time>
      </trkpt>
      <trkpt lat="48.24308" lon="-0.39071">
        <ele>242</ele>
        <time>2013-01-17T15:20:21Z</time>
      </trkpt>
      <trkpt lat="48.24326" lon="-0.39055">
        <ele>241</ele>
        <time>2013-01-17T15:20:30Z</time>
      </trkpt>
      <trkpt lat="48.24343" lon="-0.39039">
        <ele>242</ele>
        <time>2013-01-17T15:20:38Z</time>
      </trkpt>
      <trkpt lat="48.24356" lon="-0.39029">
        <ele>246</ele>
        <time>2013-01-17T15:20:45Z</time>
      </trkpt>
      <trkpt lat="48.24372" lon="-0.39018">
        <ele>241</ele>
        <time>2013-01-17T15:20:54Z</time>
      </trkpt>
      <trkpt lat="48.24372" lon="-0.39018">
        <ele>200</ele>
        <time>2013-01-17T15:21:02Z</time>
      </trkpt>
      <trkpt lat="48.24372" lon="-0.39018">
        <ele>200</ele>
        <time>2013-01-17T15:22:17Z</time>
      </trkpt>
      <trkpt lat="48.24408" lon="-0.38988">
        <ele>244</ele>
        <time>2013-01-17T15:22:25Z</time>
      </trkpt>
      <trkpt lat="48.24429" lon="-0.3897">
        <ele>238</ele>
        <time>2013-01-17T15:22:33Z</time>
      </trkpt>
      <trkpt lat="48.24448" lon="-0.38948">
        <ele>245</ele>
        <time>2013-01-17T15:22:42Z</time>
      </trkpt>
      <trkpt lat="48.24457" lon="-0.38939">
        <ele>246</ele>
        <time>2013-01-17T15:22:45Z</time>
      </trkpt>
      <trkpt lat="48.24474" lon="-0.3892">
        <ele>245</ele>
        <time>2013-01-17T15:22:51Z</time>
      </trkpt>
      <trkpt lat="48.24482" lon="-0.38913">
        <ele>242</ele>
        <time>2013-01-17T15:22:54Z</time>
      </trkpt>
      <trkpt lat="48.24491" lon="-0.38905">
        <ele>243</ele>
        <time>2013-01-17T15:22:57Z</time>
      </trkpt>
      <trkpt lat="48.2451" lon="-0.38889">
        <ele>239</ele>
        <time>2013-01-17T15:23:03Z</time>
      </trkpt>
      <trkpt lat="48.24529" lon="-0.38885">
        <ele>236</ele>
        <time>2013-01-17T15:23:07Z</time>
      </trkpt>
      <trkpt lat="48.24545" lon="-0.38883">
        <ele>235</ele>
        <time>2013-01-17T15:23:10Z</time>
      </trkpt>
      <trkpt lat="48.24561" lon="-0.38878">
        <ele>237</ele>
        <time>2013-01-17T15:23:13Z</time>
      </trkpt>
      <trkpt lat="48.24578" lon="-0.38868">
        <ele>233</ele>
        <time>2013-01-17T15:23:16Z</time>
      </trkpt>
      <trkpt lat="48.24594" lon="-0.38854">
        <ele>237</ele>
        <time>2013-01-17T15:23:19Z</time>
      </trkpt>
      <trkpt lat="48.24607" lon="-0.38838">
        <ele>238</ele>
        <time>2013-01-17T15:23:22Z</time>
      </trkpt>
      <trkpt lat="48.24642" lon="-0.38796">
        <ele>237</ele>
        <time>2013-01-17T15:23:30Z</time>
      </trkpt>
      <trkpt lat="48.24674" lon="-0.38776">
        <ele>235</ele>
        <time>2013-01-17T15:23:35Z</time>
      </trkpt>
      <trkpt lat="48.24694" lon="-0.38773">
        <ele>231</ele>
        <time>2013-01-17T15:23:38Z</time>
      </trkpt>
      <trkpt lat="48.2473" lon="-0.38765">
        <ele>228</ele>
        <time>2013-01-17T15:23:44Z</time>
      </trkpt>
      <trkpt lat="48.24744" lon="-0.38734">
        <ele>223</ele>
        <time>2013-01-17T15:23:48Z</time>
      </trkpt>
      <trkpt lat="48.2475" lon="-0.3869">
        <ele>220</ele>
        <time>2013-01-17T15:23:53Z</time>
      </trkpt>
      <trkpt lat="48.24749" lon="-0.38662">
        <ele>221</ele>
        <time>2013-01-17T15:23:56Z</time>
      </trkpt>
      <trkpt lat="48.24742" lon="-0.38621">
        <ele>224</ele>
        <time>2013-01-17T15:24:02Z</time>
      </trkpt>
      <trkpt lat="48.24738" lon="-0.38598">
        <ele>223</ele>
        <time>2013-01-17T15:24:05Z</time>
      </trkpt>
      <trkpt lat="48.24731" lon="-0.38555">
        <ele>225</ele>
        <time>2013-01-17T15:24:11Z</time>
      </trkpt>
      <trkpt lat="48.2473" lon="-0.38533">
        <ele>228</ele>
        <time>2013-01-17T15:24:14Z</time>
      </trkpt>
      <trkpt lat="48.2473" lon="-0.38533">
        <ele>185.9</ele>
        <time>2013-01-17T15:24:20Z</time>
      </trkpt>
      <trkpt lat="48.2473" lon="-0.38533">
        <ele>185.9</ele>
        <time>2013-01-17T15:26:00Z</time>
      </trkpt>
      <trkpt lat="48.2476" lon="-0.38473">
        <ele>235</ele>
        <time>2013-01-17T15:26:09Z</time>
      </trkpt>
      <trkpt lat="48.24784" lon="-0.38449">
        <ele>233</ele>
        <time>2013-01-17T15:26:17Z</time>
      </trkpt>
      <trkpt lat="48.24803" lon="-0.38432">
        <ele>231</ele>
        <time>2013-01-17T15:26:23Z</time>
      </trkpt>
      <trkpt lat="48.24821" lon="-0.38406">
        <ele>229</ele>
        <time>2013-01-17T15:26:30Z</time>
      </trkpt>
      <trkpt lat="48.24829" lon="-0.38378">
        <ele>233</ele>
        <time>2013-01-17T15:26:36Z</time>
      </trkpt>
      <trkpt lat="48.24835" lon="-0.38346">
        <ele>233</ele>
        <time>2013-01-17T15:26:43Z</time>
      </trkpt>
      <trkpt lat="48.24838" lon="-0.38326">
        <ele>234</ele>
        <time>2013-01-17T15:26:48Z</time>
      </trkpt>
      <trkpt lat="48.24845" lon="-0.38291">
        <ele>234</ele>
        <time>2013-01-17T15:26:57Z</time>
      </trkpt>
      <trkpt lat="48.24848" lon="-0.3828">
        <ele>233</ele>
        <time>2013-01-17T15:27:00Z</time>
      </trkpt>
      <trkpt lat="48.2485" lon="-0.38272">
        <ele>233</ele>
        <time>2013-01-17T15:27:03Z</time>
      </trkpt>
      <trkpt lat="48.2485" lon="-0.38272">
        <ele>192.2</ele>
        <time>2013-01-17T15:27:08Z</time>
      </trkpt>
      <trkpt lat="48.2485" lon="-0.38272">
        <ele>192.2</ele>
        <time>2013-01-17T15:27:33Z</time>
      </trkpt>
      <trkpt lat="48.24863" lon="-0.38232">
        <ele>234</ele>
        <time>2013-01-17T15:27:38Z</time>
      </trkpt>
      <trkpt lat="48.24876" lon="-0.38207">
        <ele>237</ele>
        <time>2013-01-17T15:27:46Z</time>
      </trkpt>
      <trkpt lat="48.24881" lon="-0.38199">
        <ele>236</ele>
        <time>2013-01-17T15:27:49Z</time>
      </trkpt>
      <trkpt lat="48.24886" lon="-0.38192">
        <ele>237</ele>
        <time>2013-01-17T15:27:52Z</time>
      </trkpt>
      <trkpt lat="48.24892" lon="-0.38182">
        <ele>236</ele>
        <time>2013-01-17T15:27:57Z</time>
      </trkpt>
      <trkpt lat="48.24898" lon="-0.38168">
        <ele>236</ele>
        <time>2013-01-17T15:28:03Z</time>
      </trkpt>
      <trkpt lat="48.2491" lon="-0.38142">
        <ele>238</ele>
        <time>2013-01-17T15:28:13Z</time>
      </trkpt>
      <trkpt lat="48.24918" lon="-0.38117">
        <ele>239</ele>
        <time>2013-01-17T15:28:22Z</time>
      </trkpt>
      <trkpt lat="48.24921" lon="-0.38109">
        <ele>235</ele>
        <time>2013-01-17T15:28:25Z</time>
      </trkpt>
      <trkpt lat="48.24926" lon="-0.38098">
        <ele>237</ele>
        <time>2013-01-17T15:28:29Z</time>
      </trkpt>
      <trkpt lat="48.24934" lon="-0.38076">
        <ele>233</ele>
        <time>2013-01-17T15:28:34Z</time>
      </trkpt>
      <trkpt lat="48.24941" lon="-0.38056">
        <ele>232</ele>
        <time>2013-01-17T15:28:37Z</time>
      </trkpt>
      <trkpt lat="48.24949" lon="-0.38032">
        <ele>232</ele>
        <time>2013-01-17T15:28:40Z</time>
      </trkpt>
      <trkpt lat="48.24949" lon="-0.38005">
        <ele>229</ele>
        <time>2013-01-17T15:28:43Z</time>
      </trkpt>
      <trkpt lat="48.24933" lon="-0.37955">
        <ele>235</ele>
        <time>2013-01-17T15:28:49Z</time>
      </trkpt>
      <trkpt lat="48.24912" lon="-0.37901">
        <ele>232</ele>
        <time>2013-01-17T15:28:55Z</time>
      </trkpt>
      <trkpt lat="48.24907" lon="-0.37872">
        <ele>225</ele>
        <time>2013-01-17T15:28:58Z</time>
      </trkpt>
      <trkpt lat="48.24905" lon="-0.37834">
        <ele>225</ele>
        <time>2013-01-17T15:29:03Z</time>
      </trkpt>
      <trkpt lat="48.24906" lon="-0.37804">
        <ele>228</ele>
        <time>2013-01-17T15:29:08Z</time>
      </trkpt>
      <trkpt lat="48.24906" lon="-0.37769">
        <ele>232</ele>
        <time>2013-01-17T15:29:15Z</time>
      </trkpt>
      <trkpt lat="48.24906" lon="-0.37753">
        <ele>231</ele>
        <time>2013-01-17T15:29:18Z</time>
      </trkpt>
      <trkpt lat="48.24904" lon="-0.37724">
        <ele>231</ele>
        <time>2013-01-17T15:29:24Z</time>
      </trkpt>
      <trkpt lat="48.24903" lon="-0.37696">
        <ele>232</ele>
        <time>2013-01-17T15:29:31Z</time>
      </trkpt>
      <trkpt lat="48.249" lon="-0.37669">
        <ele>235</ele>
        <time>2013-01-17T15:29:38Z</time>
      </trkpt>
      <trkpt lat="48.24898" lon="-0.37656">
        <ele>236</ele>
        <time>2013-01-17T15:29:41Z</time>
      </trkpt>
      <trkpt lat="48.24898" lon="-0.37644">
        <ele>234</ele>
        <time>2013-01-17T15:29:45Z</time>
      </trkpt>
      <trkpt lat="48.24896" lon="-0.37616">
        <ele>235</ele>
        <time>2013-01-17T15:29:56Z</time>
      </trkpt>
      <trkpt lat="48.24891" lon="-0.37597">
        <ele>239</ele>
        <time>2013-01-17T15:30:08Z</time>
      </trkpt>
      <trkpt lat="48.24889" lon="-0.37567">
        <ele>240</ele>
        <time>2013-01-17T15:30:23Z</time>
      </trkpt>
      <trkpt lat="48.24887" lon="-0.3754">
        <ele>241</ele>
        <time>2013-01-17T15:30:37Z</time>
      </trkpt>
      <trkpt lat="48.24885" lon="-0.37508">
        <ele>241</ele>
        <time>2013-01-17T15:30:53Z</time>
      </trkpt>
      <trkpt lat="48.24884" lon="-0.3749">
        <ele>244</ele>
        <time>2013-01-17T15:31:03Z</time>
      </trkpt>
      <trkpt lat="48.24884" lon="-0.37464">
        <ele>245</ele>
        <time>2013-01-17T15:31:17Z</time>
      </trkpt>
      <trkpt lat="48.24881" lon="-0.37429">
        <ele>250</ele>
        <time>2013-01-17T15:31:37Z</time>
      </trkpt>
      <trkpt lat="48.24875" lon="-0.37395">
        <ele>252</ele>
        <time>2013-01-17T15:31:56Z</time>
      </trkpt>
      <trkpt lat="48.24872" lon="-0.37368">
        <ele>253</ele>
        <time>2013-01-17T15:32:10Z</time>
      </trkpt>
      <trkpt lat="48.24869" lon="-0.37343">
        <ele>257</ele>
        <time>2013-01-17T15:32:24Z</time>
      </trkpt>
      <trkpt lat="48.2487" lon="-0.37325">
        <ele>258</ele>
        <time>2013-01-17T15:32:35Z</time>
      </trkpt>
      <trkpt lat="48.24869" lon="-0.37321">
        <ele>261</ele>
        <time>2013-01-17T15:32:37Z</time>
      </trkpt>
      <trkpt lat="48.24869" lon="-0.37321">
        <ele>211.8</ele>
        <time>2013-01-17T15:32:47Z</time>
      </trkpt>
      <trkpt lat="48.24869" lon="-0.37321">
        <ele>211.8</ele>
        <time>2013-01-17T15:32:52Z</time>
      </trkpt>
      <trkpt lat="48.24861" lon="-0.37279">
        <ele>253</ele>
        <time>2013-01-17T15:33:09Z</time>
      </trkpt>
      <trkpt lat="48.24857" lon="-0.3723">
        <ele>252</ele>
        <time>2013-01-17T15:33:19Z</time>
      </trkpt>
      <trkpt lat="48.24858" lon="-0.3719">
        <ele>247</ele>
        <time>2013-01-17T15:33:26Z</time>
      </trkpt>
      <trkpt lat="48.24863" lon="-0.37154">
        <ele>243</ele>
        <time>2013-01-17T15:33:32Z</time>
      </trkpt>
      <trkpt lat="48.24874" lon="-0.37116">
        <ele>242</ele>
        <time>2013-01-17T15:33:38Z</time>
      </trkpt>
      <trkpt lat="48.24888" lon="-0.37077">
        <ele>243</ele>
        <time>2013-01-17T15:33:44Z</time>
      </trkpt>
      <trkpt lat="48.249" lon="-0.37042">
        <ele>240</ele>
        <time>2013-01-17T15:33:49Z</time>
      </trkpt>
      <trkpt lat="48.24908" lon="-0.37021">
        <ele>239</ele>
        <time>2013-01-17T15:33:52Z</time>
      </trkpt>
      <trkpt lat="48.24918" lon="-0.37">
        <ele>238</ele>
        <time>2013-01-17T15:33:55Z</time>
      </trkpt>
      <trkpt lat="48.24938" lon="-0.36968">
        <ele>230</ele>
        <time>2013-01-17T15:34:00Z</time>
      </trkpt>
      <trkpt lat="48.24964" lon="-0.36931">
        <ele>232</ele>
        <time>2013-01-17T15:34:06Z</time>
      </trkpt>
      <trkpt lat="48.2497" lon="-0.36905">
        <ele>229</ele>
        <time>2013-01-17T15:34:09Z</time>
      </trkpt>
      <trkpt lat="48.24974" lon="-0.36879">
        <ele>227</ele>
        <time>2013-01-17T15:34:12Z</time>
      </trkpt>
      <trkpt lat="48.24981" lon="-0.3684">
        <ele>224</ele>
        <time>2013-01-17T15:34:17Z</time>
      </trkpt>
      <trkpt lat="48.24984" lon="-0.36821">
        <ele>222</ele>
        <time>2013-01-17T15:34:20Z</time>
      </trkpt>
      <trkpt lat="48.24993" lon="-0.36794">
        <ele>222</ele>
        <time>2013-01-17T15:34:40Z</time>
      </trkpt>
      <trkpt lat="48.25005" lon="-0.36779">
        <ele>220</ele>
        <time>2013-01-17T15:34:45Z</time>
      </trkpt>
      <trkpt lat="48.25022" lon="-0.36757">
        <ele>223</ele>
        <time>2013-01-17T15:34:51Z</time>
      </trkpt>
      <trkpt lat="48.25037" lon="-0.36735">
        <ele>223</ele>
        <time>2013-01-17T15:34:57Z</time>
      </trkpt>
      <trkpt lat="48.25039" lon="-0.36711">
        <ele>228</ele>
        <time>2013-01-17T15:35:03Z</time>
      </trkpt>
      <trkpt lat="48.25032" lon="-0.36694">
        <ele>231</ele>
        <time>2013-01-17T15:35:08Z</time>
      </trkpt>
      <trkpt lat="48.25032" lon="-0.36694">
        <ele>183.8</ele>
        <time>2013-01-17T15:35:14Z</time>
      </trkpt>
      <trkpt lat="48.25032" lon="-0.36694">
        <ele>183.8</ele>
        <time>2013-01-17T15:35:28Z</time>
      </trkpt>
      <trkpt lat="48.25041" lon="-0.36648">
        <ele>225</ele>
        <time>2013-01-17T15:35:33Z</time>
      </trkpt>
      <trkpt lat="48.25054" lon="-0.36608">
        <ele>226</ele>
        <time>2013-01-17T15:35:41Z</time>
      </trkpt>
      <trkpt lat="48.2506" lon="-0.36581">
        <ele>224</ele>
        <time>2013-01-17T15:35:46Z</time>
      </trkpt>
      <trkpt lat="48.25066" lon="-0.36562">
        <ele>224</ele>
        <time>2013-01-17T15:35:49Z</time>
      </trkpt>
      <trkpt lat="48.25075" lon="-0.3653">
        <ele>223</ele>
        <time>2013-01-17T15:35:54Z</time>
      </trkpt>
      <trkpt lat="48.25087" lon="-0.36491">
        <ele>223</ele>
        <time>2013-01-17T15:36:00Z</time>
      </trkpt>
      <trkpt lat="48.25094" lon="-0.36446">
        <ele>223</ele>
        <time>2013-01-17T15:36:07Z</time>
      </trkpt>
      <trkpt lat="48.25088" lon="-0.36399">
        <ele>223</ele>
        <time>2013-01-17T15:36:14Z</time>
      </trkpt>
      <trkpt lat="48.25084" lon="-0.36366">
        <ele>230</ele>
        <time>2013-01-17T15:36:20Z</time>
      </trkpt>
      <trkpt lat="48.25077" lon="-0.36328">
        <ele>230</ele>
        <time>2013-01-17T15:36:27Z</time>
      </trkpt>
      <trkpt lat="48.25088" lon="-0.36312">
        <ele>229</ele>
        <time>2013-01-17T15:36:32Z</time>
      </trkpt>
      <trkpt lat="48.25094" lon="-0.36292">
        <ele>232</ele>
        <time>2013-01-17T15:36:41Z</time>
      </trkpt>
      <trkpt lat="48.25079" lon="-0.36246">
        <ele>236</ele>
        <time>2013-01-17T15:36:52Z</time>
      </trkpt>
      <trkpt lat="48.25081" lon="-0.36219">
        <ele>227</ele>
        <time>2013-01-17T15:36:58Z</time>
      </trkpt>
      <trkpt lat="48.25091" lon="-0.362">
        <ele>228</ele>
        <time>2013-01-17T15:37:06Z</time>
      </trkpt>
      <trkpt lat="48.25098" lon="-0.36193">
        <ele>231</ele>
        <time>2013-01-17T15:37:13Z</time>
      </trkpt>
      <trkpt lat="48.25098" lon="-0.36193">
        <ele>188.1</ele>
        <time>2013-01-17T15:37:20Z</time>
      </trkpt>
      <trkpt lat="48.25098" lon="-0.36193">
        <ele>188.1</ele>
        <time>2013-01-17T15:38:19Z</time>
      </trkpt>
      <trkpt lat="48.25124" lon="-0.36168">
        <ele>227</ele>
        <time>2013-01-17T15:38:26Z</time>
      </trkpt>
      <trkpt lat="48.25132" lon="-0.36149">
        <ele>231</ele>
        <time>2013-01-17T15:38:34Z</time>
      </trkpt>
      <trkpt lat="48.25137" lon="-0.3613">
        <ele>233</ele>
        <time>2013-01-17T15:38:41Z</time>
      </trkpt>
      <trkpt lat="48.25144" lon="-0.36113">
        <ele>232</ele>
        <time>2013-01-17T15:38:48Z</time>
      </trkpt>
      <trkpt lat="48.25157" lon="-0.36095">
        <ele>233</ele>
        <time>2013-01-17T15:38:57Z</time>
      </trkpt>
      <trkpt lat="48.25175" lon="-0.3607">
        <ele>235</ele>
        <time>2013-01-17T15:39:10Z</time>
      </trkpt>
      <trkpt lat="48.2519" lon="-0.36049">
        <ele>238</ele>
        <time>2013-01-17T15:39:22Z</time>
      </trkpt>
      <trkpt lat="48.25204" lon="-0.36029">
        <ele>235</ele>
        <time>2013-01-17T15:39:32Z</time>
      </trkpt>
      <trkpt lat="48.25218" lon="-0.36">
        <ele>237</ele>
        <time>2013-01-17T15:39:43Z</time>
      </trkpt>
      <trkpt lat="48.25225" lon="-0.35978">
        <ele>236</ele>
        <time>2013-01-17T15:39:50Z</time>
      </trkpt>
      <trkpt lat="48.25227" lon="-0.35968">
        <ele>237</ele>
        <time>2013-01-17T15:39:54Z</time>
      </trkpt>
      <trkpt lat="48.25227" lon="-0.35968">
        <ele>199.9</ele>
        <time>2013-01-17T15:39:59Z</time>
      </trkpt>
      <trkpt lat="48.25227" lon="-0.35968">
        <ele>199.9</ele>
        <time>2013-01-17T15:41:41Z</time>
      </trkpt>
      <trkpt lat="48.25222" lon="-0.35947">
        <ele>199.9</ele>
        <time>2013-01-17T15:42:32Z</time>
      </trkpt>
      <trkpt lat="48.25222" lon="-0.35947">
        <ele>199.9</ele>
        <time>2013-01-17T15:42:33Z</time>
      </trkpt>
    </trkseg>
  </trk>
</gpx>